<?xml version="1.0" encoding="UTF-8" standalone="no" ?>
<gpx xmlns="http://www.topografix.com/GPX/1/1" creator="CompeGPS" version="1.1" xmlns:xsi="http://www.w3.org/2001/XMLSchema-instance" xsi:schemaLocation="http://www.topografix.com/GPX/1/1 http://www.topografix.com/GPX/1/1/gpx.xsd">
  <metadata>
    <link href="http://www.compegps.com">
      <text>CompeGPS TEAM, SL</text>
    </link>
    <time>2023-02-26T21:23:30Z</time>
    <bounds maxlat="37.041070" maxlon="-4.279910" minlat="37.013548" minlon="-4.340856"/>
  </metadata>
  <trk>
    <name>Fuente de los 100 Caños</name>
    <trkseg>
      <trkpt lat="37.026642" lon="-4.340794">
        <ele>720.6</ele>
        <time>2023-02-26T08:04:56Z</time>
      </trkpt>
      <trkpt lat="37.026463" lon="-4.340856">
        <ele>719.7</ele>
        <time>2023-02-26T08:07:55Z</time>
      </trkpt>
      <trkpt lat="37.026136" lon="-4.340629">
        <ele>717.3</ele>
        <time>2023-02-26T08:08:45Z</time>
      </trkpt>
      <trkpt lat="37.026018" lon="-4.340595">
        <ele>716.3</ele>
        <time>2023-02-26T08:10:44Z</time>
      </trkpt>
      <trkpt lat="37.025898" lon="-4.340557">
        <ele>716.8</ele>
        <time>2023-02-26T08:11:28Z</time>
      </trkpt>
      <trkpt lat="37.025919" lon="-4.340327">
        <ele>716.8</ele>
        <time>2023-02-26T08:11:45Z</time>
      </trkpt>
      <trkpt lat="37.025990" lon="-4.340045">
        <ele>716.8</ele>
        <time>2023-02-26T08:12:03Z</time>
      </trkpt>
      <trkpt lat="37.026064" lon="-4.339825">
        <ele>717.3</ele>
        <time>2023-02-26T08:12:20Z</time>
      </trkpt>
      <trkpt lat="37.026141" lon="-4.339594">
        <ele>716.8</ele>
        <time>2023-02-26T08:12:37Z</time>
      </trkpt>
      <trkpt lat="37.026249" lon="-4.339397">
        <ele>716.8</ele>
        <time>2023-02-26T08:12:52Z</time>
      </trkpt>
      <trkpt lat="37.026327" lon="-4.339173">
        <ele>716.3</ele>
        <time>2023-02-26T08:13:08Z</time>
      </trkpt>
      <trkpt lat="37.026412" lon="-4.338977">
        <ele>716.8</ele>
        <time>2023-02-26T08:13:22Z</time>
      </trkpt>
      <trkpt lat="37.026482" lon="-4.338755">
        <ele>717.3</ele>
        <time>2023-02-26T08:13:36Z</time>
      </trkpt>
      <trkpt lat="37.026547" lon="-4.338520">
        <ele>717.3</ele>
        <time>2023-02-26T08:13:50Z</time>
      </trkpt>
      <trkpt lat="37.026639" lon="-4.338298">
        <ele>716.3</ele>
        <time>2023-02-26T08:14:06Z</time>
      </trkpt>
      <trkpt lat="37.026743" lon="-4.338098">
        <ele>716.3</ele>
        <time>2023-02-26T08:14:21Z</time>
      </trkpt>
      <trkpt lat="37.026820" lon="-4.337883">
        <ele>715.4</ele>
        <time>2023-02-26T08:14:36Z</time>
      </trkpt>
      <trkpt lat="37.026920" lon="-4.337678">
        <ele>716.3</ele>
        <time>2023-02-26T08:14:51Z</time>
      </trkpt>
      <trkpt lat="37.027023" lon="-4.337464">
        <ele>715.4</ele>
        <time>2023-02-26T08:15:07Z</time>
      </trkpt>
      <trkpt lat="37.027021" lon="-4.337259">
        <ele>715.4</ele>
        <time>2023-02-26T08:16:29Z</time>
      </trkpt>
      <trkpt lat="37.027196" lon="-4.337149">
        <ele>713.9</ele>
        <time>2023-02-26T08:17:09Z</time>
      </trkpt>
      <trkpt lat="37.027289" lon="-4.336886">
        <ele>714.4</ele>
        <time>2023-02-26T08:17:28Z</time>
      </trkpt>
      <trkpt lat="37.027379" lon="-4.336622">
        <ele>714.4</ele>
        <time>2023-02-26T08:17:45Z</time>
      </trkpt>
      <trkpt lat="37.027512" lon="-4.336344">
        <ele>715.8</ele>
        <time>2023-02-26T08:18:06Z</time>
      </trkpt>
      <trkpt lat="37.027671" lon="-4.336070">
        <ele>715.4</ele>
        <time>2023-02-26T08:18:26Z</time>
      </trkpt>
      <trkpt lat="37.027803" lon="-4.335816">
        <ele>716.3</ele>
        <time>2023-02-26T08:18:42Z</time>
      </trkpt>
      <trkpt lat="37.027871" lon="-4.335598">
        <ele>715.8</ele>
        <time>2023-02-26T08:18:57Z</time>
      </trkpt>
      <trkpt lat="37.027976" lon="-4.335397">
        <ele>715.8</ele>
        <time>2023-02-26T08:19:12Z</time>
      </trkpt>
      <trkpt lat="37.028058" lon="-4.335180">
        <ele>714.9</ele>
        <time>2023-02-26T08:19:27Z</time>
      </trkpt>
      <trkpt lat="37.028127" lon="-4.334938">
        <ele>715.8</ele>
        <time>2023-02-26T08:19:43Z</time>
      </trkpt>
      <trkpt lat="37.028174" lon="-4.334697">
        <ele>715.8</ele>
        <time>2023-02-26T08:19:58Z</time>
      </trkpt>
      <trkpt lat="37.028182" lon="-4.334436">
        <ele>715.4</ele>
        <time>2023-02-26T08:20:14Z</time>
      </trkpt>
      <trkpt lat="37.028158" lon="-4.334169">
        <ele>715.4</ele>
        <time>2023-02-26T08:20:30Z</time>
      </trkpt>
      <trkpt lat="37.028106" lon="-4.333895">
        <ele>714.4</ele>
        <time>2023-02-26T08:20:46Z</time>
      </trkpt>
      <trkpt lat="37.028036" lon="-4.333607">
        <ele>715.4</ele>
        <time>2023-02-26T08:21:00Z</time>
      </trkpt>
      <trkpt lat="37.028022" lon="-4.333363">
        <ele>715.4</ele>
        <time>2023-02-26T08:21:14Z</time>
      </trkpt>
      <trkpt lat="37.028047" lon="-4.333129">
        <ele>714.4</ele>
        <time>2023-02-26T08:21:29Z</time>
      </trkpt>
      <trkpt lat="37.028078" lon="-4.332868">
        <ele>713.4</ele>
        <time>2023-02-26T08:21:47Z</time>
      </trkpt>
      <trkpt lat="37.028156" lon="-4.332698">
        <ele>712.5</ele>
        <time>2023-02-26T08:22:25Z</time>
      </trkpt>
      <trkpt lat="37.028114" lon="-4.332450">
        <ele>712.0</ele>
        <time>2023-02-26T08:23:14Z</time>
      </trkpt>
      <trkpt lat="37.028161" lon="-4.332201">
        <ele>711.0</ele>
        <time>2023-02-26T08:23:31Z</time>
      </trkpt>
      <trkpt lat="37.028127" lon="-4.331950">
        <ele>711.5</ele>
        <time>2023-02-26T08:24:03Z</time>
      </trkpt>
      <trkpt lat="37.028238" lon="-4.331716">
        <ele>711.5</ele>
        <time>2023-02-26T08:24:33Z</time>
      </trkpt>
      <trkpt lat="37.028312" lon="-4.331393">
        <ele>712.0</ele>
        <time>2023-02-26T08:24:52Z</time>
      </trkpt>
      <trkpt lat="37.028408" lon="-4.331042">
        <ele>712.0</ele>
        <time>2023-02-26T08:25:11Z</time>
      </trkpt>
      <trkpt lat="37.028476" lon="-4.330779">
        <ele>712.5</ele>
        <time>2023-02-26T08:25:35Z</time>
      </trkpt>
      <trkpt lat="37.028489" lon="-4.330524">
        <ele>712.5</ele>
        <time>2023-02-26T08:25:51Z</time>
      </trkpt>
      <trkpt lat="37.028533" lon="-4.330285">
        <ele>712.0</ele>
        <time>2023-02-26T08:26:06Z</time>
      </trkpt>
      <trkpt lat="37.028553" lon="-4.330058">
        <ele>712.0</ele>
        <time>2023-02-26T08:26:20Z</time>
      </trkpt>
      <trkpt lat="37.028575" lon="-4.329817">
        <ele>712.5</ele>
        <time>2023-02-26T08:26:34Z</time>
      </trkpt>
      <trkpt lat="37.028587" lon="-4.329582">
        <ele>713.4</ele>
        <time>2023-02-26T08:26:48Z</time>
      </trkpt>
      <trkpt lat="37.028575" lon="-4.329331">
        <ele>713.4</ele>
        <time>2023-02-26T08:27:02Z</time>
      </trkpt>
      <trkpt lat="37.028591" lon="-4.329084">
        <ele>713.4</ele>
        <time>2023-02-26T08:27:16Z</time>
      </trkpt>
      <trkpt lat="37.028585" lon="-4.328843">
        <ele>713.4</ele>
        <time>2023-02-26T08:27:30Z</time>
      </trkpt>
      <trkpt lat="37.028594" lon="-4.328600">
        <ele>713.9</ele>
        <time>2023-02-26T08:27:44Z</time>
      </trkpt>
      <trkpt lat="37.028600" lon="-4.328367">
        <ele>714.9</ele>
        <time>2023-02-26T08:27:58Z</time>
      </trkpt>
      <trkpt lat="37.028598" lon="-4.328120">
        <ele>714.4</ele>
        <time>2023-02-26T08:28:12Z</time>
      </trkpt>
      <trkpt lat="37.028580" lon="-4.327874">
        <ele>714.9</ele>
        <time>2023-02-26T08:28:26Z</time>
      </trkpt>
      <trkpt lat="37.028544" lon="-4.327623">
        <ele>714.4</ele>
        <time>2023-02-26T08:28:40Z</time>
      </trkpt>
      <trkpt lat="37.028505" lon="-4.327378">
        <ele>715.4</ele>
        <time>2023-02-26T08:28:54Z</time>
      </trkpt>
      <trkpt lat="37.028659" lon="-4.327361">
        <ele>714.4</ele>
        <time>2023-02-26T08:29:14Z</time>
      </trkpt>
      <trkpt lat="37.028855" lon="-4.327435">
        <ele>712.0</ele>
        <time>2023-02-26T08:29:30Z</time>
      </trkpt>
      <trkpt lat="37.029110" lon="-4.327412">
        <ele>712.0</ele>
        <time>2023-02-26T08:29:50Z</time>
      </trkpt>
      <trkpt lat="37.029320" lon="-4.327309">
        <ele>711.5</ele>
        <time>2023-02-26T08:30:25Z</time>
      </trkpt>
      <trkpt lat="37.029517" lon="-4.327228">
        <ele>711.0</ele>
        <time>2023-02-26T08:30:40Z</time>
      </trkpt>
      <trkpt lat="37.029699" lon="-4.327169">
        <ele>712.0</ele>
        <time>2023-02-26T08:30:55Z</time>
      </trkpt>
      <trkpt lat="37.029820" lon="-4.326960">
        <ele>711.5</ele>
        <time>2023-02-26T08:31:10Z</time>
      </trkpt>
      <trkpt lat="37.029886" lon="-4.326724">
        <ele>712.0</ele>
        <time>2023-02-26T08:31:25Z</time>
      </trkpt>
      <trkpt lat="37.029933" lon="-4.326495">
        <ele>712.0</ele>
        <time>2023-02-26T08:31:39Z</time>
      </trkpt>
      <trkpt lat="37.029979" lon="-4.326257">
        <ele>712.5</ele>
        <time>2023-02-26T08:31:53Z</time>
      </trkpt>
      <trkpt lat="37.030049" lon="-4.326048">
        <ele>712.5</ele>
        <time>2023-02-26T08:32:06Z</time>
      </trkpt>
      <trkpt lat="37.030166" lon="-4.325867">
        <ele>712.0</ele>
        <time>2023-02-26T08:32:19Z</time>
      </trkpt>
      <trkpt lat="37.030296" lon="-4.325717">
        <ele>712.5</ele>
        <time>2023-02-26T08:32:32Z</time>
      </trkpt>
      <trkpt lat="37.030440" lon="-4.325555">
        <ele>712.5</ele>
        <time>2023-02-26T08:32:46Z</time>
      </trkpt>
      <trkpt lat="37.030571" lon="-4.325399">
        <ele>712.5</ele>
        <time>2023-02-26T08:32:59Z</time>
      </trkpt>
      <trkpt lat="37.030693" lon="-4.325217">
        <ele>712.5</ele>
        <time>2023-02-26T08:33:13Z</time>
      </trkpt>
      <trkpt lat="37.030800" lon="-4.325043">
        <ele>713.9</ele>
        <time>2023-02-26T08:33:26Z</time>
      </trkpt>
      <trkpt lat="37.030961" lon="-4.324920">
        <ele>713.9</ele>
        <time>2023-02-26T08:33:40Z</time>
      </trkpt>
      <trkpt lat="37.031139" lon="-4.324839">
        <ele>713.4</ele>
        <time>2023-02-26T08:33:54Z</time>
      </trkpt>
      <trkpt lat="37.031307" lon="-4.324734">
        <ele>713.0</ele>
        <time>2023-02-26T08:34:07Z</time>
      </trkpt>
      <trkpt lat="37.031426" lon="-4.324554">
        <ele>714.4</ele>
        <time>2023-02-26T08:34:21Z</time>
      </trkpt>
      <trkpt lat="37.031520" lon="-4.324335">
        <ele>713.9</ele>
        <time>2023-02-26T08:34:36Z</time>
      </trkpt>
      <trkpt lat="37.031638" lon="-4.324182">
        <ele>713.4</ele>
        <time>2023-02-26T08:35:04Z</time>
      </trkpt>
      <trkpt lat="37.031783" lon="-4.324037">
        <ele>713.9</ele>
        <time>2023-02-26T08:35:18Z</time>
      </trkpt>
      <trkpt lat="37.031947" lon="-4.323910">
        <ele>714.9</ele>
        <time>2023-02-26T08:35:32Z</time>
      </trkpt>
      <trkpt lat="37.032125" lon="-4.323816">
        <ele>714.9</ele>
        <time>2023-02-26T08:35:48Z</time>
      </trkpt>
      <trkpt lat="37.032280" lon="-4.323668">
        <ele>714.9</ele>
        <time>2023-02-26T08:36:05Z</time>
      </trkpt>
      <trkpt lat="37.032357" lon="-4.323431">
        <ele>719.7</ele>
        <time>2023-02-26T08:36:25Z</time>
      </trkpt>
      <trkpt lat="37.032510" lon="-4.323224">
        <ele>715.4</ele>
        <time>2023-02-26T08:36:44Z</time>
      </trkpt>
      <trkpt lat="37.032663" lon="-4.323021">
        <ele>718.7</ele>
        <time>2023-02-26T08:37:03Z</time>
      </trkpt>
      <trkpt lat="37.032872" lon="-4.323002">
        <ele>715.8</ele>
        <time>2023-02-26T08:37:22Z</time>
      </trkpt>
      <trkpt lat="37.033102" lon="-4.322881">
        <ele>713.4</ele>
        <time>2023-02-26T08:37:42Z</time>
      </trkpt>
      <trkpt lat="37.033234" lon="-4.322641">
        <ele>713.9</ele>
        <time>2023-02-26T08:38:00Z</time>
      </trkpt>
      <trkpt lat="37.033316" lon="-4.322383">
        <ele>716.3</ele>
        <time>2023-02-26T08:38:18Z</time>
      </trkpt>
      <trkpt lat="37.033434" lon="-4.322126">
        <ele>716.3</ele>
        <time>2023-02-26T08:38:35Z</time>
      </trkpt>
      <trkpt lat="37.033577" lon="-4.321956">
        <ele>715.8</ele>
        <time>2023-02-26T08:38:52Z</time>
      </trkpt>
      <trkpt lat="37.033734" lon="-4.321758">
        <ele>715.8</ele>
        <time>2023-02-26T08:39:09Z</time>
      </trkpt>
      <trkpt lat="37.033882" lon="-4.321575">
        <ele>715.8</ele>
        <time>2023-02-26T08:39:27Z</time>
      </trkpt>
      <trkpt lat="37.033989" lon="-4.321351">
        <ele>716.3</ele>
        <time>2023-02-26T08:39:43Z</time>
      </trkpt>
      <trkpt lat="37.034115" lon="-4.321119">
        <ele>716.3</ele>
        <time>2023-02-26T08:40:01Z</time>
      </trkpt>
      <trkpt lat="37.034275" lon="-4.320916">
        <ele>718.7</ele>
        <time>2023-02-26T08:40:18Z</time>
      </trkpt>
      <trkpt lat="37.034286" lon="-4.320663">
        <ele>719.7</ele>
        <time>2023-02-26T08:40:37Z</time>
      </trkpt>
      <trkpt lat="37.034275" lon="-4.320387">
        <ele>719.7</ele>
        <time>2023-02-26T08:40:55Z</time>
      </trkpt>
      <trkpt lat="37.034405" lon="-4.320228">
        <ele>717.3</ele>
        <time>2023-02-26T08:41:13Z</time>
      </trkpt>
      <trkpt lat="37.034599" lon="-4.320115">
        <ele>718.2</ele>
        <time>2023-02-26T08:41:30Z</time>
      </trkpt>
      <trkpt lat="37.034806" lon="-4.320029">
        <ele>717.3</ele>
        <time>2023-02-26T08:41:47Z</time>
      </trkpt>
      <trkpt lat="37.035017" lon="-4.319954">
        <ele>719.7</ele>
        <time>2023-02-26T08:42:03Z</time>
      </trkpt>
      <trkpt lat="37.035177" lon="-4.319958">
        <ele>716.8</ele>
        <time>2023-02-26T08:42:34Z</time>
      </trkpt>
      <trkpt lat="37.035300" lon="-4.320100">
        <ele>718.7</ele>
        <time>2023-02-26T08:42:58Z</time>
      </trkpt>
      <trkpt lat="37.035481" lon="-4.320095">
        <ele>717.8</ele>
        <time>2023-02-26T08:43:34Z</time>
      </trkpt>
      <trkpt lat="37.035670" lon="-4.320202">
        <ele>718.2</ele>
        <time>2023-02-26T08:43:53Z</time>
      </trkpt>
      <trkpt lat="37.035913" lon="-4.320244">
        <ele>718.2</ele>
        <time>2023-02-26T08:44:14Z</time>
      </trkpt>
      <trkpt lat="37.036117" lon="-4.320338">
        <ele>720.2</ele>
        <time>2023-02-26T08:44:33Z</time>
      </trkpt>
      <trkpt lat="37.036314" lon="-4.320217">
        <ele>720.6</ele>
        <time>2023-02-26T08:44:54Z</time>
      </trkpt>
      <trkpt lat="37.036447" lon="-4.320024">
        <ele>719.7</ele>
        <time>2023-02-26T08:45:11Z</time>
      </trkpt>
      <trkpt lat="37.036554" lon="-4.319754">
        <ele>720.6</ele>
        <time>2023-02-26T08:45:37Z</time>
      </trkpt>
      <trkpt lat="37.036599" lon="-4.319429">
        <ele>720.2</ele>
        <time>2023-02-26T08:45:58Z</time>
      </trkpt>
      <trkpt lat="37.036632" lon="-4.319152">
        <ele>720.6</ele>
        <time>2023-02-26T08:46:52Z</time>
      </trkpt>
      <trkpt lat="37.036835" lon="-4.318901">
        <ele>721.6</ele>
        <time>2023-02-26T08:47:31Z</time>
      </trkpt>
      <trkpt lat="37.036911" lon="-4.318820">
        <ele>718.7</ele>
        <time>2023-02-26T08:48:06Z</time>
      </trkpt>
      <trkpt lat="37.037169" lon="-4.318671">
        <ele>720.6</ele>
        <time>2023-02-26T08:48:40Z</time>
      </trkpt>
      <trkpt lat="37.037398" lon="-4.318471">
        <ele>721.1</ele>
        <time>2023-02-26T08:49:04Z</time>
      </trkpt>
      <trkpt lat="37.037580" lon="-4.318236">
        <ele>720.6</ele>
        <time>2023-02-26T08:49:32Z</time>
      </trkpt>
      <trkpt lat="37.037741" lon="-4.317973">
        <ele>721.1</ele>
        <time>2023-02-26T08:49:54Z</time>
      </trkpt>
      <trkpt lat="37.037899" lon="-4.317729">
        <ele>721.6</ele>
        <time>2023-02-26T08:50:12Z</time>
      </trkpt>
      <trkpt lat="37.038048" lon="-4.317562">
        <ele>722.6</ele>
        <time>2023-02-26T08:50:29Z</time>
      </trkpt>
      <trkpt lat="37.038111" lon="-4.317308">
        <ele>722.6</ele>
        <time>2023-02-26T08:50:48Z</time>
      </trkpt>
      <trkpt lat="37.038223" lon="-4.317054">
        <ele>722.1</ele>
        <time>2023-02-26T08:51:05Z</time>
      </trkpt>
      <trkpt lat="37.038296" lon="-4.316810">
        <ele>721.1</ele>
        <time>2023-02-26T08:51:22Z</time>
      </trkpt>
      <trkpt lat="37.038458" lon="-4.316568">
        <ele>720.6</ele>
        <time>2023-02-26T08:51:39Z</time>
      </trkpt>
      <trkpt lat="37.038459" lon="-4.316298">
        <ele>722.6</ele>
        <time>2023-02-26T08:51:57Z</time>
      </trkpt>
      <trkpt lat="37.038539" lon="-4.316033">
        <ele>722.6</ele>
        <time>2023-02-26T08:52:15Z</time>
      </trkpt>
      <trkpt lat="37.038552" lon="-4.315751">
        <ele>723.5</ele>
        <time>2023-02-26T08:52:34Z</time>
      </trkpt>
      <trkpt lat="37.038686" lon="-4.315491">
        <ele>723.0</ele>
        <time>2023-02-26T08:52:52Z</time>
      </trkpt>
      <trkpt lat="37.038854" lon="-4.315268">
        <ele>724.0</ele>
        <time>2023-02-26T08:53:09Z</time>
      </trkpt>
      <trkpt lat="37.039025" lon="-4.315134">
        <ele>723.0</ele>
        <time>2023-02-26T08:53:25Z</time>
      </trkpt>
      <trkpt lat="37.039092" lon="-4.314869">
        <ele>723.5</ele>
        <time>2023-02-26T08:53:41Z</time>
      </trkpt>
      <trkpt lat="37.039189" lon="-4.314647">
        <ele>725.0</ele>
        <time>2023-02-26T08:53:56Z</time>
      </trkpt>
      <trkpt lat="37.039229" lon="-4.314407">
        <ele>724.5</ele>
        <time>2023-02-26T08:54:11Z</time>
      </trkpt>
      <trkpt lat="37.039268" lon="-4.314104">
        <ele>725.0</ele>
        <time>2023-02-26T08:54:27Z</time>
      </trkpt>
      <trkpt lat="37.039313" lon="-4.313873">
        <ele>725.0</ele>
        <time>2023-02-26T08:54:43Z</time>
      </trkpt>
      <trkpt lat="37.039459" lon="-4.313649">
        <ele>725.5</ele>
        <time>2023-02-26T08:55:03Z</time>
      </trkpt>
      <trkpt lat="37.039554" lon="-4.313396">
        <ele>725.9</ele>
        <time>2023-02-26T08:55:21Z</time>
      </trkpt>
      <trkpt lat="37.039726" lon="-4.313217">
        <ele>725.5</ele>
        <time>2023-02-26T08:55:37Z</time>
      </trkpt>
      <trkpt lat="37.039864" lon="-4.313013">
        <ele>725.9</ele>
        <time>2023-02-26T08:55:52Z</time>
      </trkpt>
      <trkpt lat="37.039988" lon="-4.312813">
        <ele>726.4</ele>
        <time>2023-02-26T08:56:08Z</time>
      </trkpt>
      <trkpt lat="37.040092" lon="-4.312599">
        <ele>725.5</ele>
        <time>2023-02-26T08:56:23Z</time>
      </trkpt>
      <trkpt lat="37.040210" lon="-4.312380">
        <ele>725.9</ele>
        <time>2023-02-26T08:56:39Z</time>
      </trkpt>
      <trkpt lat="37.040350" lon="-4.312182">
        <ele>726.4</ele>
        <time>2023-02-26T08:56:56Z</time>
      </trkpt>
      <trkpt lat="37.040548" lon="-4.312003">
        <ele>726.9</ele>
        <time>2023-02-26T08:57:13Z</time>
      </trkpt>
      <trkpt lat="37.040697" lon="-4.311790">
        <ele>726.4</ele>
        <time>2023-02-26T08:57:31Z</time>
      </trkpt>
      <trkpt lat="37.040757" lon="-4.311543">
        <ele>727.9</ele>
        <time>2023-02-26T08:57:48Z</time>
      </trkpt>
      <trkpt lat="37.040645" lon="-4.311270">
        <ele>727.4</ele>
        <time>2023-02-26T08:58:07Z</time>
      </trkpt>
      <trkpt lat="37.040610" lon="-4.311004">
        <ele>728.3</ele>
        <time>2023-02-26T08:58:23Z</time>
      </trkpt>
      <trkpt lat="37.040674" lon="-4.310776">
        <ele>727.9</ele>
        <time>2023-02-26T08:58:38Z</time>
      </trkpt>
      <trkpt lat="37.040730" lon="-4.310539">
        <ele>728.3</ele>
        <time>2023-02-26T08:58:53Z</time>
      </trkpt>
      <trkpt lat="37.040863" lon="-4.310380">
        <ele>728.8</ele>
        <time>2023-02-26T08:59:07Z</time>
      </trkpt>
      <trkpt lat="37.040940" lon="-4.310169">
        <ele>728.8</ele>
        <time>2023-02-26T08:59:22Z</time>
      </trkpt>
      <trkpt lat="37.041070" lon="-4.309986">
        <ele>728.3</ele>
        <time>2023-02-26T08:59:38Z</time>
      </trkpt>
      <trkpt lat="37.041036" lon="-4.309755">
        <ele>728.8</ele>
        <time>2023-02-26T08:59:54Z</time>
      </trkpt>
      <trkpt lat="37.040887" lon="-4.309599">
        <ele>729.3</ele>
        <time>2023-02-26T09:00:09Z</time>
      </trkpt>
      <trkpt lat="37.040724" lon="-4.309460">
        <ele>730.3</ele>
        <time>2023-02-26T09:00:24Z</time>
      </trkpt>
      <trkpt lat="37.040608" lon="-4.309336">
        <ele>729.8</ele>
        <time>2023-02-26T09:01:21Z</time>
      </trkpt>
      <trkpt lat="37.040480" lon="-4.309161">
        <ele>730.3</ele>
        <time>2023-02-26T09:01:36Z</time>
      </trkpt>
      <trkpt lat="37.040417" lon="-4.308919">
        <ele>731.2</ele>
        <time>2023-02-26T09:01:52Z</time>
      </trkpt>
      <trkpt lat="37.040531" lon="-4.308733">
        <ele>730.7</ele>
        <time>2023-02-26T09:02:07Z</time>
      </trkpt>
      <trkpt lat="37.040595" lon="-4.308507">
        <ele>730.7</ele>
        <time>2023-02-26T09:02:21Z</time>
      </trkpt>
      <trkpt lat="37.040533" lon="-4.308280">
        <ele>730.7</ele>
        <time>2023-02-26T09:02:35Z</time>
      </trkpt>
      <trkpt lat="37.040389" lon="-4.308136">
        <ele>731.7</ele>
        <time>2023-02-26T09:02:49Z</time>
      </trkpt>
      <trkpt lat="37.040241" lon="-4.307982">
        <ele>732.7</ele>
        <time>2023-02-26T09:03:04Z</time>
      </trkpt>
      <trkpt lat="37.040098" lon="-4.307845">
        <ele>732.7</ele>
        <time>2023-02-26T09:03:18Z</time>
      </trkpt>
      <trkpt lat="37.040079" lon="-4.307611">
        <ele>733.1</ele>
        <time>2023-02-26T09:03:34Z</time>
      </trkpt>
      <trkpt lat="37.039999" lon="-4.307394">
        <ele>733.1</ele>
        <time>2023-02-26T09:03:51Z</time>
      </trkpt>
      <trkpt lat="37.039829" lon="-4.307231">
        <ele>734.1</ele>
        <time>2023-02-26T09:04:08Z</time>
      </trkpt>
      <trkpt lat="37.039710" lon="-4.307010">
        <ele>734.1</ele>
        <time>2023-02-26T09:04:24Z</time>
      </trkpt>
      <trkpt lat="37.039633" lon="-4.306743">
        <ele>732.7</ele>
        <time>2023-02-26T09:04:56Z</time>
      </trkpt>
      <trkpt lat="37.039442" lon="-4.306511">
        <ele>733.6</ele>
        <time>2023-02-26T09:05:22Z</time>
      </trkpt>
      <trkpt lat="37.039332" lon="-4.306173">
        <ele>734.1</ele>
        <time>2023-02-26T09:05:46Z</time>
      </trkpt>
      <trkpt lat="37.039351" lon="-4.305833">
        <ele>734.1</ele>
        <time>2023-02-26T09:06:07Z</time>
      </trkpt>
      <trkpt lat="37.039377" lon="-4.305540">
        <ele>735.1</ele>
        <time>2023-02-26T09:06:30Z</time>
      </trkpt>
      <trkpt lat="37.039535" lon="-4.305324">
        <ele>734.6</ele>
        <time>2023-02-26T09:06:48Z</time>
      </trkpt>
      <trkpt lat="37.039632" lon="-4.305078">
        <ele>735.5</ele>
        <time>2023-02-26T09:07:05Z</time>
      </trkpt>
      <trkpt lat="37.039673" lon="-4.304831">
        <ele>736.5</ele>
        <time>2023-02-26T09:07:22Z</time>
      </trkpt>
      <trkpt lat="37.039694" lon="-4.304622">
        <ele>736.5</ele>
        <time>2023-02-26T09:08:35Z</time>
      </trkpt>
      <trkpt lat="37.039726" lon="-4.304375">
        <ele>736.5</ele>
        <time>2023-02-26T09:08:52Z</time>
      </trkpt>
      <trkpt lat="37.039719" lon="-4.304131">
        <ele>735.5</ele>
        <time>2023-02-26T09:09:09Z</time>
      </trkpt>
      <trkpt lat="37.039677" lon="-4.303891">
        <ele>737.0</ele>
        <time>2023-02-26T09:09:24Z</time>
      </trkpt>
      <trkpt lat="37.039655" lon="-4.303651">
        <ele>736.5</ele>
        <time>2023-02-26T09:09:40Z</time>
      </trkpt>
      <trkpt lat="37.039740" lon="-4.303474">
        <ele>737.0</ele>
        <time>2023-02-26T09:09:56Z</time>
      </trkpt>
      <trkpt lat="37.039806" lon="-4.303277">
        <ele>737.5</ele>
        <time>2023-02-26T09:10:14Z</time>
      </trkpt>
      <trkpt lat="37.039631" lon="-4.303123">
        <ele>737.0</ele>
        <time>2023-02-26T09:10:29Z</time>
      </trkpt>
      <trkpt lat="37.039504" lon="-4.302941">
        <ele>738.4</ele>
        <time>2023-02-26T09:10:43Z</time>
      </trkpt>
      <trkpt lat="37.039447" lon="-4.302721">
        <ele>738.9</ele>
        <time>2023-02-26T09:10:56Z</time>
      </trkpt>
      <trkpt lat="37.039375" lon="-4.302504">
        <ele>737.9</ele>
        <time>2023-02-26T09:11:09Z</time>
      </trkpt>
      <trkpt lat="37.039299" lon="-4.302297">
        <ele>738.4</ele>
        <time>2023-02-26T09:11:22Z</time>
      </trkpt>
      <trkpt lat="37.039204" lon="-4.302100">
        <ele>738.4</ele>
        <time>2023-02-26T09:11:36Z</time>
      </trkpt>
      <trkpt lat="37.039147" lon="-4.301869">
        <ele>737.9</ele>
        <time>2023-02-26T09:11:50Z</time>
      </trkpt>
      <trkpt lat="37.039117" lon="-4.301617">
        <ele>738.4</ele>
        <time>2023-02-26T09:12:05Z</time>
      </trkpt>
      <trkpt lat="37.039012" lon="-4.301439">
        <ele>738.9</ele>
        <time>2023-02-26T09:12:19Z</time>
      </trkpt>
      <trkpt lat="37.038811" lon="-4.301402">
        <ele>738.4</ele>
        <time>2023-02-26T09:12:33Z</time>
      </trkpt>
      <trkpt lat="37.038670" lon="-4.301252">
        <ele>740.4</ele>
        <time>2023-02-26T09:12:47Z</time>
      </trkpt>
      <trkpt lat="37.038572" lon="-4.301032">
        <ele>739.4</ele>
        <time>2023-02-26T09:13:03Z</time>
      </trkpt>
      <trkpt lat="37.038430" lon="-4.300873">
        <ele>739.4</ele>
        <time>2023-02-26T09:13:17Z</time>
      </trkpt>
      <trkpt lat="37.038234" lon="-4.300902">
        <ele>740.8</ele>
        <time>2023-02-26T09:13:32Z</time>
      </trkpt>
      <trkpt lat="37.038026" lon="-4.300949">
        <ele>742.3</ele>
        <time>2023-02-26T09:13:49Z</time>
      </trkpt>
      <trkpt lat="37.037841" lon="-4.300870">
        <ele>742.8</ele>
        <time>2023-02-26T09:14:04Z</time>
      </trkpt>
      <trkpt lat="37.037661" lon="-4.300787">
        <ele>742.3</ele>
        <time>2023-02-26T09:14:18Z</time>
      </trkpt>
      <trkpt lat="37.037487" lon="-4.300669">
        <ele>742.3</ele>
        <time>2023-02-26T09:14:32Z</time>
      </trkpt>
      <trkpt lat="37.037316" lon="-4.300539">
        <ele>742.8</ele>
        <time>2023-02-26T09:14:46Z</time>
      </trkpt>
      <trkpt lat="37.037149" lon="-4.300392">
        <ele>742.3</ele>
        <time>2023-02-26T09:15:03Z</time>
      </trkpt>
      <trkpt lat="37.037012" lon="-4.300216">
        <ele>743.2</ele>
        <time>2023-02-26T09:15:27Z</time>
      </trkpt>
      <trkpt lat="37.036833" lon="-4.300181">
        <ele>743.7</ele>
        <time>2023-02-26T09:15:44Z</time>
      </trkpt>
      <trkpt lat="37.036685" lon="-4.300022">
        <ele>744.2</ele>
        <time>2023-02-26T09:15:58Z</time>
      </trkpt>
      <trkpt lat="37.036540" lon="-4.299860">
        <ele>744.2</ele>
        <time>2023-02-26T09:16:12Z</time>
      </trkpt>
      <trkpt lat="37.036435" lon="-4.299677">
        <ele>743.7</ele>
        <time>2023-02-26T09:16:28Z</time>
      </trkpt>
      <trkpt lat="37.036285" lon="-4.299506">
        <ele>743.7</ele>
        <time>2023-02-26T09:16:42Z</time>
      </trkpt>
      <trkpt lat="37.036134" lon="-4.299349">
        <ele>743.2</ele>
        <time>2023-02-26T09:16:56Z</time>
      </trkpt>
      <trkpt lat="37.035980" lon="-4.299215">
        <ele>743.7</ele>
        <time>2023-02-26T09:17:11Z</time>
      </trkpt>
      <trkpt lat="37.035762" lon="-4.299180">
        <ele>744.2</ele>
        <time>2023-02-26T09:17:26Z</time>
      </trkpt>
      <trkpt lat="37.035559" lon="-4.299157">
        <ele>745.6</ele>
        <time>2023-02-26T09:17:41Z</time>
      </trkpt>
      <trkpt lat="37.035405" lon="-4.299013">
        <ele>746.1</ele>
        <time>2023-02-26T09:17:57Z</time>
      </trkpt>
      <trkpt lat="37.035270" lon="-4.298851">
        <ele>746.6</ele>
        <time>2023-02-26T09:18:11Z</time>
      </trkpt>
      <trkpt lat="37.035120" lon="-4.298703">
        <ele>746.6</ele>
        <time>2023-02-26T09:18:25Z</time>
      </trkpt>
      <trkpt lat="37.034963" lon="-4.298560">
        <ele>747.1</ele>
        <time>2023-02-26T09:18:40Z</time>
      </trkpt>
      <trkpt lat="37.034908" lon="-4.298338">
        <ele>747.6</ele>
        <time>2023-02-26T09:18:55Z</time>
      </trkpt>
      <trkpt lat="37.034894" lon="-4.298073">
        <ele>747.6</ele>
        <time>2023-02-26T09:19:11Z</time>
      </trkpt>
      <trkpt lat="37.034767" lon="-4.297886">
        <ele>747.1</ele>
        <time>2023-02-26T09:19:26Z</time>
      </trkpt>
      <trkpt lat="37.034581" lon="-4.297804">
        <ele>749.0</ele>
        <time>2023-02-26T09:19:40Z</time>
      </trkpt>
      <trkpt lat="37.034377" lon="-4.297784">
        <ele>750.0</ele>
        <time>2023-02-26T09:19:55Z</time>
      </trkpt>
      <trkpt lat="37.034216" lon="-4.297661">
        <ele>749.5</ele>
        <time>2023-02-26T09:20:10Z</time>
      </trkpt>
      <trkpt lat="37.034003" lon="-4.297603">
        <ele>750.9</ele>
        <time>2023-02-26T09:20:25Z</time>
      </trkpt>
      <trkpt lat="37.033814" lon="-4.297518">
        <ele>749.5</ele>
        <time>2023-02-26T09:20:39Z</time>
      </trkpt>
      <trkpt lat="37.033645" lon="-4.297388">
        <ele>750.4</ele>
        <time>2023-02-26T09:20:54Z</time>
      </trkpt>
      <trkpt lat="37.033471" lon="-4.297243">
        <ele>750.9</ele>
        <time>2023-02-26T09:21:08Z</time>
      </trkpt>
      <trkpt lat="37.033327" lon="-4.297104">
        <ele>750.0</ele>
        <time>2023-02-26T09:21:22Z</time>
      </trkpt>
      <trkpt lat="37.033187" lon="-4.296938">
        <ele>751.4</ele>
        <time>2023-02-26T09:21:36Z</time>
      </trkpt>
      <trkpt lat="37.033056" lon="-4.296757">
        <ele>750.9</ele>
        <time>2023-02-26T09:21:50Z</time>
      </trkpt>
      <trkpt lat="37.032890" lon="-4.296589">
        <ele>751.4</ele>
        <time>2023-02-26T09:22:05Z</time>
      </trkpt>
      <trkpt lat="37.032773" lon="-4.296390">
        <ele>750.9</ele>
        <time>2023-02-26T09:22:19Z</time>
      </trkpt>
      <trkpt lat="37.032623" lon="-4.296224">
        <ele>751.9</ele>
        <time>2023-02-26T09:22:33Z</time>
      </trkpt>
      <trkpt lat="37.032478" lon="-4.296071">
        <ele>753.3</ele>
        <time>2023-02-26T09:22:47Z</time>
      </trkpt>
      <trkpt lat="37.032326" lon="-4.295920">
        <ele>753.8</ele>
        <time>2023-02-26T09:23:01Z</time>
      </trkpt>
      <trkpt lat="37.032200" lon="-4.295752">
        <ele>755.3</ele>
        <time>2023-02-26T09:23:16Z</time>
      </trkpt>
      <trkpt lat="37.032269" lon="-4.295485">
        <ele>755.3</ele>
        <time>2023-02-26T09:23:41Z</time>
      </trkpt>
      <trkpt lat="37.032245" lon="-4.295098">
        <ele>755.3</ele>
        <time>2023-02-26T09:24:12Z</time>
      </trkpt>
      <trkpt lat="37.032167" lon="-4.294850">
        <ele>756.7</ele>
        <time>2023-02-26T09:24:57Z</time>
      </trkpt>
      <trkpt lat="37.032129" lon="-4.294602">
        <ele>756.2</ele>
        <time>2023-02-26T09:25:14Z</time>
      </trkpt>
      <trkpt lat="37.032122" lon="-4.294340">
        <ele>755.3</ele>
        <time>2023-02-26T09:25:29Z</time>
      </trkpt>
      <trkpt lat="37.032118" lon="-4.294100">
        <ele>756.2</ele>
        <time>2023-02-26T09:25:44Z</time>
      </trkpt>
      <trkpt lat="37.032061" lon="-4.293846">
        <ele>756.7</ele>
        <time>2023-02-26T09:26:01Z</time>
      </trkpt>
      <trkpt lat="37.032028" lon="-4.293605">
        <ele>756.7</ele>
        <time>2023-02-26T09:26:14Z</time>
      </trkpt>
      <trkpt lat="37.032009" lon="-4.293405">
        <ele>757.2</ele>
        <time>2023-02-26T09:26:47Z</time>
      </trkpt>
      <trkpt lat="37.032161" lon="-4.293326">
        <ele>758.6</ele>
        <time>2023-02-26T09:27:03Z</time>
      </trkpt>
      <trkpt lat="37.032174" lon="-4.293052">
        <ele>758.6</ele>
        <time>2023-02-26T09:27:20Z</time>
      </trkpt>
      <trkpt lat="37.032093" lon="-4.292758">
        <ele>757.7</ele>
        <time>2023-02-26T09:27:41Z</time>
      </trkpt>
      <trkpt lat="37.032290" lon="-4.292552">
        <ele>758.6</ele>
        <time>2023-02-26T09:27:59Z</time>
      </trkpt>
      <trkpt lat="37.032270" lon="-4.292305">
        <ele>759.6</ele>
        <time>2023-02-26T09:28:16Z</time>
      </trkpt>
      <trkpt lat="37.032195" lon="-4.292059">
        <ele>759.1</ele>
        <time>2023-02-26T09:28:31Z</time>
      </trkpt>
      <trkpt lat="37.032117" lon="-4.291826">
        <ele>759.6</ele>
        <time>2023-02-26T09:28:44Z</time>
      </trkpt>
      <trkpt lat="37.032046" lon="-4.291598">
        <ele>759.6</ele>
        <time>2023-02-26T09:28:58Z</time>
      </trkpt>
      <trkpt lat="37.032070" lon="-4.291361">
        <ele>759.6</ele>
        <time>2023-02-26T09:29:13Z</time>
      </trkpt>
      <trkpt lat="37.032181" lon="-4.291152">
        <ele>759.6</ele>
        <time>2023-02-26T09:29:28Z</time>
      </trkpt>
      <trkpt lat="37.032164" lon="-4.290895">
        <ele>761.5</ele>
        <time>2023-02-26T09:29:43Z</time>
      </trkpt>
      <trkpt lat="37.032191" lon="-4.290640">
        <ele>762.0</ele>
        <time>2023-02-26T09:29:59Z</time>
      </trkpt>
      <trkpt lat="37.032216" lon="-4.290349">
        <ele>762.0</ele>
        <time>2023-02-26T09:30:31Z</time>
      </trkpt>
      <trkpt lat="37.032141" lon="-4.290084">
        <ele>762.0</ele>
        <time>2023-02-26T09:30:49Z</time>
      </trkpt>
      <trkpt lat="37.032219" lon="-4.289749">
        <ele>764.4</ele>
        <time>2023-02-26T09:31:11Z</time>
      </trkpt>
      <trkpt lat="37.032188" lon="-4.289415">
        <ele>763.4</ele>
        <time>2023-02-26T09:31:30Z</time>
      </trkpt>
      <trkpt lat="37.032175" lon="-4.289095">
        <ele>764.4</ele>
        <time>2023-02-26T09:31:48Z</time>
      </trkpt>
      <trkpt lat="37.032223" lon="-4.288817">
        <ele>764.9</ele>
        <time>2023-02-26T09:32:05Z</time>
      </trkpt>
      <trkpt lat="37.032310" lon="-4.288579">
        <ele>765.8</ele>
        <time>2023-02-26T09:32:27Z</time>
      </trkpt>
      <trkpt lat="37.032281" lon="-4.288324">
        <ele>765.8</ele>
        <time>2023-02-26T09:32:44Z</time>
      </trkpt>
      <trkpt lat="37.032295" lon="-4.288065">
        <ele>765.3</ele>
        <time>2023-02-26T09:33:00Z</time>
      </trkpt>
      <trkpt lat="37.032392" lon="-4.287814">
        <ele>765.8</ele>
        <time>2023-02-26T09:33:17Z</time>
      </trkpt>
      <trkpt lat="37.032483" lon="-4.287539">
        <ele>765.8</ele>
        <time>2023-02-26T09:33:38Z</time>
      </trkpt>
      <trkpt lat="37.032597" lon="-4.287291">
        <ele>767.3</ele>
        <time>2023-02-26T09:33:57Z</time>
      </trkpt>
      <trkpt lat="37.032480" lon="-4.287084">
        <ele>769.2</ele>
        <time>2023-02-26T09:34:13Z</time>
      </trkpt>
      <trkpt lat="37.032288" lon="-4.286953">
        <ele>768.7</ele>
        <time>2023-02-26T09:34:30Z</time>
      </trkpt>
      <trkpt lat="37.032098" lon="-4.286788">
        <ele>768.7</ele>
        <time>2023-02-26T09:34:50Z</time>
      </trkpt>
      <trkpt lat="37.032177" lon="-4.286556">
        <ele>768.7</ele>
        <time>2023-02-26T09:35:09Z</time>
      </trkpt>
      <trkpt lat="37.032255" lon="-4.286340">
        <ele>770.6</ele>
        <time>2023-02-26T09:35:43Z</time>
      </trkpt>
      <trkpt lat="37.032406" lon="-4.286151">
        <ele>772.1</ele>
        <time>2023-02-26T09:35:59Z</time>
      </trkpt>
      <trkpt lat="37.032483" lon="-4.285888">
        <ele>772.6</ele>
        <time>2023-02-26T09:36:14Z</time>
      </trkpt>
      <trkpt lat="37.032415" lon="-4.285642">
        <ele>771.1</ele>
        <time>2023-02-26T09:36:28Z</time>
      </trkpt>
      <trkpt lat="37.032357" lon="-4.285392">
        <ele>772.6</ele>
        <time>2023-02-26T09:36:42Z</time>
      </trkpt>
      <trkpt lat="37.032390" lon="-4.285135">
        <ele>772.1</ele>
        <time>2023-02-26T09:36:56Z</time>
      </trkpt>
      <trkpt lat="37.032490" lon="-4.284889">
        <ele>773.5</ele>
        <time>2023-02-26T09:37:12Z</time>
      </trkpt>
      <trkpt lat="37.032556" lon="-4.284642">
        <ele>775.0</ele>
        <time>2023-02-26T09:37:27Z</time>
      </trkpt>
      <trkpt lat="37.032527" lon="-4.284388">
        <ele>775.4</ele>
        <time>2023-02-26T09:37:41Z</time>
      </trkpt>
      <trkpt lat="37.032446" lon="-4.284167">
        <ele>775.4</ele>
        <time>2023-02-26T09:37:55Z</time>
      </trkpt>
      <trkpt lat="37.032479" lon="-4.283942">
        <ele>775.4</ele>
        <time>2023-02-26T09:38:10Z</time>
      </trkpt>
      <trkpt lat="37.032567" lon="-4.283690">
        <ele>775.9</ele>
        <time>2023-02-26T09:38:27Z</time>
      </trkpt>
      <trkpt lat="37.032622" lon="-4.283449">
        <ele>775.9</ele>
        <time>2023-02-26T09:38:41Z</time>
      </trkpt>
      <trkpt lat="37.032730" lon="-4.283219">
        <ele>776.4</ele>
        <time>2023-02-26T09:38:58Z</time>
      </trkpt>
      <trkpt lat="37.032931" lon="-4.283137">
        <ele>777.4</ele>
        <time>2023-02-26T09:39:13Z</time>
      </trkpt>
      <trkpt lat="37.033054" lon="-4.283036">
        <ele>777.8</ele>
        <time>2023-02-26T09:39:28Z</time>
      </trkpt>
      <trkpt lat="37.033056" lon="-4.282796">
        <ele>778.8</ele>
        <time>2023-02-26T09:39:44Z</time>
      </trkpt>
      <trkpt lat="37.033186" lon="-4.282595">
        <ele>778.3</ele>
        <time>2023-02-26T09:39:59Z</time>
      </trkpt>
      <trkpt lat="37.033294" lon="-4.282372">
        <ele>779.3</ele>
        <time>2023-02-26T09:40:15Z</time>
      </trkpt>
      <trkpt lat="37.033350" lon="-4.282125">
        <ele>781.7</ele>
        <time>2023-02-26T09:40:29Z</time>
      </trkpt>
      <trkpt lat="37.033462" lon="-4.281921">
        <ele>781.7</ele>
        <time>2023-02-26T09:40:44Z</time>
      </trkpt>
      <trkpt lat="37.033619" lon="-4.281731">
        <ele>782.7</ele>
        <time>2023-02-26T09:41:00Z</time>
      </trkpt>
      <trkpt lat="37.033718" lon="-4.281535">
        <ele>783.1</ele>
        <time>2023-02-26T09:41:15Z</time>
      </trkpt>
      <trkpt lat="37.033799" lon="-4.281316">
        <ele>783.1</ele>
        <time>2023-02-26T09:41:30Z</time>
      </trkpt>
      <trkpt lat="37.033803" lon="-4.281073">
        <ele>784.1</ele>
        <time>2023-02-26T09:41:58Z</time>
      </trkpt>
      <trkpt lat="37.033602" lon="-4.281032">
        <ele>783.6</ele>
        <time>2023-02-26T09:42:21Z</time>
      </trkpt>
      <trkpt lat="37.033411" lon="-4.281010">
        <ele>783.6</ele>
        <time>2023-02-26T09:42:52Z</time>
      </trkpt>
      <trkpt lat="37.033199" lon="-4.280907">
        <ele>787.9</ele>
        <time>2023-02-26T09:43:17Z</time>
      </trkpt>
      <trkpt lat="37.032979" lon="-4.280809">
        <ele>791.3</ele>
        <time>2023-02-26T09:43:38Z</time>
      </trkpt>
      <trkpt lat="37.032728" lon="-4.280825">
        <ele>794.2</ele>
        <time>2023-02-26T09:44:01Z</time>
      </trkpt>
      <trkpt lat="37.032499" lon="-4.280792">
        <ele>797.6</ele>
        <time>2023-02-26T09:44:19Z</time>
      </trkpt>
      <trkpt lat="37.032300" lon="-4.280841">
        <ele>798.0</ele>
        <time>2023-02-26T09:44:35Z</time>
      </trkpt>
      <trkpt lat="37.032091" lon="-4.280882">
        <ele>801.4</ele>
        <time>2023-02-26T09:44:52Z</time>
      </trkpt>
      <trkpt lat="37.031845" lon="-4.280946">
        <ele>803.3</ele>
        <time>2023-02-26T09:45:20Z</time>
      </trkpt>
      <trkpt lat="37.031670" lon="-4.280861">
        <ele>805.2</ele>
        <time>2023-02-26T09:46:00Z</time>
      </trkpt>
      <trkpt lat="37.031574" lon="-4.280949">
        <ele>804.8</ele>
        <time>2023-02-26T09:49:07Z</time>
      </trkpt>
      <trkpt lat="37.031372" lon="-4.280957">
        <ele>809.1</ele>
        <time>2023-02-26T09:49:42Z</time>
      </trkpt>
      <trkpt lat="37.031191" lon="-4.280895">
        <ele>810.5</ele>
        <time>2023-02-26T09:50:06Z</time>
      </trkpt>
      <trkpt lat="37.030970" lon="-4.280874">
        <ele>814.9</ele>
        <time>2023-02-26T09:50:26Z</time>
      </trkpt>
      <trkpt lat="37.030786" lon="-4.280820">
        <ele>821.1</ele>
        <time>2023-02-26T09:50:45Z</time>
      </trkpt>
      <trkpt lat="37.030611" lon="-4.280729">
        <ele>822.5</ele>
        <time>2023-02-26T09:51:04Z</time>
      </trkpt>
      <trkpt lat="37.030432" lon="-4.280684">
        <ele>823.5</ele>
        <time>2023-02-26T09:51:23Z</time>
      </trkpt>
      <trkpt lat="37.030248" lon="-4.280635">
        <ele>827.4</ele>
        <time>2023-02-26T09:51:39Z</time>
      </trkpt>
      <trkpt lat="37.030099" lon="-4.280595">
        <ele>831.2</ele>
        <time>2023-02-26T09:52:05Z</time>
      </trkpt>
      <trkpt lat="37.029955" lon="-4.280710">
        <ele>832.6</ele>
        <time>2023-02-26T09:52:28Z</time>
      </trkpt>
      <trkpt lat="37.029846" lon="-4.280746">
        <ele>833.6</ele>
        <time>2023-02-26T09:53:31Z</time>
      </trkpt>
      <trkpt lat="37.029709" lon="-4.280777">
        <ele>837.4</ele>
        <time>2023-02-26T09:54:09Z</time>
      </trkpt>
      <trkpt lat="37.029665" lon="-4.280585">
        <ele>839.8</ele>
        <time>2023-02-26T09:54:44Z</time>
      </trkpt>
      <trkpt lat="37.029580" lon="-4.280410">
        <ele>844.2</ele>
        <time>2023-02-26T09:55:18Z</time>
      </trkpt>
      <trkpt lat="37.029729" lon="-4.280206">
        <ele>838.9</ele>
        <time>2023-02-26T09:56:23Z</time>
      </trkpt>
      <trkpt lat="37.029948" lon="-4.280122">
        <ele>835.5</ele>
        <time>2023-02-26T09:56:51Z</time>
      </trkpt>
      <trkpt lat="37.030001" lon="-4.280130">
        <ele>834.6</ele>
        <time>2023-02-26T09:58:28Z</time>
      </trkpt>
      <trkpt lat="37.030211" lon="-4.280019">
        <ele>828.3</ele>
        <time>2023-02-26T09:58:50Z</time>
      </trkpt>
      <trkpt lat="37.030325" lon="-4.279910">
        <ele>834.1</ele>
        <time>2023-02-26T10:02:59Z</time>
      </trkpt>
      <trkpt lat="37.030257" lon="-4.279984">
        <ele>830.7</ele>
        <time>2023-02-26T10:05:18Z</time>
      </trkpt>
      <trkpt lat="37.030230" lon="-4.280055">
        <ele>831.7</ele>
        <time>2023-02-26T10:07:33Z</time>
      </trkpt>
      <trkpt lat="37.030079" lon="-4.280102">
        <ele>831.7</ele>
        <time>2023-02-26T10:09:08Z</time>
      </trkpt>
      <trkpt lat="37.029917" lon="-4.280175">
        <ele>839.4</ele>
        <time>2023-02-26T10:09:25Z</time>
      </trkpt>
      <trkpt lat="37.029754" lon="-4.280276">
        <ele>840.8</ele>
        <time>2023-02-26T10:09:41Z</time>
      </trkpt>
      <trkpt lat="37.029594" lon="-4.280392">
        <ele>845.1</ele>
        <time>2023-02-26T10:09:59Z</time>
      </trkpt>
      <trkpt lat="37.029479" lon="-4.280600">
        <ele>847.1</ele>
        <time>2023-02-26T10:10:18Z</time>
      </trkpt>
      <trkpt lat="37.029367" lon="-4.280821">
        <ele>850.4</ele>
        <time>2023-02-26T10:10:36Z</time>
      </trkpt>
      <trkpt lat="37.029224" lon="-4.280979">
        <ele>852.3</ele>
        <time>2023-02-26T10:10:54Z</time>
      </trkpt>
      <trkpt lat="37.029050" lon="-4.281146">
        <ele>854.3</ele>
        <time>2023-02-26T10:11:18Z</time>
      </trkpt>
      <trkpt lat="37.028908" lon="-4.281384">
        <ele>855.2</ele>
        <time>2023-02-26T10:11:35Z</time>
      </trkpt>
      <trkpt lat="37.028776" lon="-4.281555">
        <ele>855.2</ele>
        <time>2023-02-26T10:12:10Z</time>
      </trkpt>
      <trkpt lat="37.028676" lon="-4.281541">
        <ele>855.7</ele>
        <time>2023-02-26T10:13:25Z</time>
      </trkpt>
      <trkpt lat="37.028640" lon="-4.281731">
        <ele>858.6</ele>
        <time>2023-02-26T10:14:23Z</time>
      </trkpt>
      <trkpt lat="37.028578" lon="-4.281952">
        <ele>859.1</ele>
        <time>2023-02-26T10:14:37Z</time>
      </trkpt>
      <trkpt lat="37.028463" lon="-4.282133">
        <ele>863.4</ele>
        <time>2023-02-26T10:14:54Z</time>
      </trkpt>
      <trkpt lat="37.028322" lon="-4.282329">
        <ele>867.7</ele>
        <time>2023-02-26T10:15:12Z</time>
      </trkpt>
      <trkpt lat="37.028234" lon="-4.282546">
        <ele>868.2</ele>
        <time>2023-02-26T10:15:27Z</time>
      </trkpt>
      <trkpt lat="37.028138" lon="-4.282748">
        <ele>866.3</ele>
        <time>2023-02-26T10:15:41Z</time>
      </trkpt>
      <trkpt lat="37.028027" lon="-4.282937">
        <ele>864.4</ele>
        <time>2023-02-26T10:15:56Z</time>
      </trkpt>
      <trkpt lat="37.027871" lon="-4.283081">
        <ele>861.0</ele>
        <time>2023-02-26T10:16:13Z</time>
      </trkpt>
      <trkpt lat="37.027713" lon="-4.283234">
        <ele>859.1</ele>
        <time>2023-02-26T10:16:29Z</time>
      </trkpt>
      <trkpt lat="37.027566" lon="-4.283418">
        <ele>858.6</ele>
        <time>2023-02-26T10:16:45Z</time>
      </trkpt>
      <trkpt lat="37.027387" lon="-4.283541">
        <ele>858.6</ele>
        <time>2023-02-26T10:17:00Z</time>
      </trkpt>
      <trkpt lat="37.027103" lon="-4.283676">
        <ele>862.4</ele>
        <time>2023-02-26T10:17:24Z</time>
      </trkpt>
      <trkpt lat="37.026822" lon="-4.283850">
        <ele>865.3</ele>
        <time>2023-02-26T10:17:48Z</time>
      </trkpt>
      <trkpt lat="37.026585" lon="-4.284034">
        <ele>868.2</ele>
        <time>2023-02-26T10:18:07Z</time>
      </trkpt>
      <trkpt lat="37.026394" lon="-4.284205">
        <ele>867.7</ele>
        <time>2023-02-26T10:18:23Z</time>
      </trkpt>
      <trkpt lat="37.026176" lon="-4.284333">
        <ele>868.2</ele>
        <time>2023-02-26T10:18:41Z</time>
      </trkpt>
      <trkpt lat="37.025938" lon="-4.284443">
        <ele>867.7</ele>
        <time>2023-02-26T10:18:57Z</time>
      </trkpt>
      <trkpt lat="37.025762" lon="-4.284508">
        <ele>871.1</ele>
        <time>2023-02-26T10:19:56Z</time>
      </trkpt>
      <trkpt lat="37.025656" lon="-4.284689">
        <ele>872.5</ele>
        <time>2023-02-26T10:20:30Z</time>
      </trkpt>
      <trkpt lat="37.025516" lon="-4.284860">
        <ele>874.9</ele>
        <time>2023-02-26T10:20:43Z</time>
      </trkpt>
      <trkpt lat="37.025377" lon="-4.285021">
        <ele>877.3</ele>
        <time>2023-02-26T10:20:59Z</time>
      </trkpt>
      <trkpt lat="37.025227" lon="-4.285198">
        <ele>879.3</ele>
        <time>2023-02-26T10:21:17Z</time>
      </trkpt>
      <trkpt lat="37.025054" lon="-4.285355">
        <ele>881.7</ele>
        <time>2023-02-26T10:21:33Z</time>
      </trkpt>
      <trkpt lat="37.024906" lon="-4.285555">
        <ele>883.6</ele>
        <time>2023-02-26T10:21:49Z</time>
      </trkpt>
      <trkpt lat="37.024765" lon="-4.285746">
        <ele>885.0</ele>
        <time>2023-02-26T10:22:04Z</time>
      </trkpt>
      <trkpt lat="37.024611" lon="-4.285909">
        <ele>887.0</ele>
        <time>2023-02-26T10:22:19Z</time>
      </trkpt>
      <trkpt lat="37.024482" lon="-4.286149">
        <ele>887.9</ele>
        <time>2023-02-26T10:22:36Z</time>
      </trkpt>
      <trkpt lat="37.024393" lon="-4.286419">
        <ele>888.4</ele>
        <time>2023-02-26T10:22:52Z</time>
      </trkpt>
      <trkpt lat="37.024280" lon="-4.286647">
        <ele>887.4</ele>
        <time>2023-02-26T10:23:08Z</time>
      </trkpt>
      <trkpt lat="37.024106" lon="-4.286920">
        <ele>887.0</ele>
        <time>2023-02-26T10:23:39Z</time>
      </trkpt>
      <trkpt lat="37.023954" lon="-4.287140">
        <ele>885.5</ele>
        <time>2023-02-26T10:24:40Z</time>
      </trkpt>
      <trkpt lat="37.023843" lon="-4.287355">
        <ele>885.5</ele>
        <time>2023-02-26T10:24:55Z</time>
      </trkpt>
      <trkpt lat="37.023721" lon="-4.287593">
        <ele>882.6</ele>
        <time>2023-02-26T10:25:10Z</time>
      </trkpt>
      <trkpt lat="37.023623" lon="-4.287879">
        <ele>881.7</ele>
        <time>2023-02-26T10:25:26Z</time>
      </trkpt>
      <trkpt lat="37.023483" lon="-4.288199">
        <ele>884.1</ele>
        <time>2023-02-26T10:25:49Z</time>
      </trkpt>
      <trkpt lat="37.023354" lon="-4.288441">
        <ele>882.6</ele>
        <time>2023-02-26T10:26:38Z</time>
      </trkpt>
      <trkpt lat="37.023167" lon="-4.288606">
        <ele>885.0</ele>
        <time>2023-02-26T10:26:56Z</time>
      </trkpt>
      <trkpt lat="37.023042" lon="-4.288780">
        <ele>885.0</ele>
        <time>2023-02-26T10:27:12Z</time>
      </trkpt>
      <trkpt lat="37.022911" lon="-4.289044">
        <ele>884.6</ele>
        <time>2023-02-26T10:27:29Z</time>
      </trkpt>
      <trkpt lat="37.022784" lon="-4.289259">
        <ele>886.5</ele>
        <time>2023-02-26T10:27:45Z</time>
      </trkpt>
      <trkpt lat="37.022830" lon="-4.289359">
        <ele>887.0</ele>
        <time>2023-02-26T10:30:22Z</time>
      </trkpt>
      <trkpt lat="37.022656" lon="-4.289433">
        <ele>883.6</ele>
        <time>2023-02-26T10:30:37Z</time>
      </trkpt>
      <trkpt lat="37.022476" lon="-4.289623">
        <ele>880.7</ele>
        <time>2023-02-26T10:30:53Z</time>
      </trkpt>
      <trkpt lat="37.022329" lon="-4.289812">
        <ele>878.3</ele>
        <time>2023-02-26T10:31:07Z</time>
      </trkpt>
      <trkpt lat="37.022155" lon="-4.289959">
        <ele>876.4</ele>
        <time>2023-02-26T10:31:25Z</time>
      </trkpt>
      <trkpt lat="37.022001" lon="-4.290166">
        <ele>873.5</ele>
        <time>2023-02-26T10:31:44Z</time>
      </trkpt>
      <trkpt lat="37.021829" lon="-4.290309">
        <ele>872.5</ele>
        <time>2023-02-26T10:32:00Z</time>
      </trkpt>
      <trkpt lat="37.021636" lon="-4.290478">
        <ele>873.5</ele>
        <time>2023-02-26T10:32:17Z</time>
      </trkpt>
      <trkpt lat="37.021437" lon="-4.290693">
        <ele>874.0</ele>
        <time>2023-02-26T10:32:36Z</time>
      </trkpt>
      <trkpt lat="37.021299" lon="-4.290930">
        <ele>870.6</ele>
        <time>2023-02-26T10:32:52Z</time>
      </trkpt>
      <trkpt lat="37.021116" lon="-4.291065">
        <ele>870.1</ele>
        <time>2023-02-26T10:33:07Z</time>
      </trkpt>
      <trkpt lat="37.020921" lon="-4.291260">
        <ele>869.6</ele>
        <time>2023-02-26T10:33:26Z</time>
      </trkpt>
      <trkpt lat="37.020743" lon="-4.291462">
        <ele>871.1</ele>
        <time>2023-02-26T10:33:43Z</time>
      </trkpt>
      <trkpt lat="37.020573" lon="-4.291686">
        <ele>870.6</ele>
        <time>2023-02-26T10:34:01Z</time>
      </trkpt>
      <trkpt lat="37.020403" lon="-4.291865">
        <ele>872.1</ele>
        <time>2023-02-26T10:34:16Z</time>
      </trkpt>
      <trkpt lat="37.020217" lon="-4.291993">
        <ele>872.1</ele>
        <time>2023-02-26T10:34:29Z</time>
      </trkpt>
      <trkpt lat="37.020023" lon="-4.292006">
        <ele>873.5</ele>
        <time>2023-02-26T10:34:42Z</time>
      </trkpt>
      <trkpt lat="37.019832" lon="-4.292011">
        <ele>873.0</ele>
        <time>2023-02-26T10:34:55Z</time>
      </trkpt>
      <trkpt lat="37.019633" lon="-4.292018">
        <ele>872.1</ele>
        <time>2023-02-26T10:35:09Z</time>
      </trkpt>
      <trkpt lat="37.019464" lon="-4.292133">
        <ele>872.1</ele>
        <time>2023-02-26T10:35:23Z</time>
      </trkpt>
      <trkpt lat="37.019333" lon="-4.292323">
        <ele>871.6</ele>
        <time>2023-02-26T10:35:36Z</time>
      </trkpt>
      <trkpt lat="37.019214" lon="-4.292462">
        <ele>873.5</ele>
        <time>2023-02-26T10:35:51Z</time>
      </trkpt>
      <trkpt lat="37.019132" lon="-4.292680">
        <ele>874.5</ele>
        <time>2023-02-26T10:36:07Z</time>
      </trkpt>
      <trkpt lat="37.018963" lon="-4.292765">
        <ele>874.0</ele>
        <time>2023-02-26T10:36:21Z</time>
      </trkpt>
      <trkpt lat="37.018797" lon="-4.292808">
        <ele>872.1</ele>
        <time>2023-02-26T10:36:34Z</time>
      </trkpt>
      <trkpt lat="37.018618" lon="-4.292909">
        <ele>869.2</ele>
        <time>2023-02-26T10:36:48Z</time>
      </trkpt>
      <trkpt lat="37.018444" lon="-4.293013">
        <ele>868.2</ele>
        <time>2023-02-26T10:37:00Z</time>
      </trkpt>
      <trkpt lat="37.018279" lon="-4.293181">
        <ele>868.2</ele>
        <time>2023-02-26T10:37:12Z</time>
      </trkpt>
      <trkpt lat="37.018091" lon="-4.293161">
        <ele>868.2</ele>
        <time>2023-02-26T10:37:24Z</time>
      </trkpt>
      <trkpt lat="37.017918" lon="-4.293273">
        <ele>867.2</ele>
        <time>2023-02-26T10:37:37Z</time>
      </trkpt>
      <trkpt lat="37.017772" lon="-4.293422">
        <ele>869.2</ele>
        <time>2023-02-26T10:37:51Z</time>
      </trkpt>
      <trkpt lat="37.017594" lon="-4.293532">
        <ele>871.6</ele>
        <time>2023-02-26T10:38:10Z</time>
      </trkpt>
      <trkpt lat="37.017387" lon="-4.293666">
        <ele>873.5</ele>
        <time>2023-02-26T10:38:27Z</time>
      </trkpt>
      <trkpt lat="37.017174" lon="-4.293762">
        <ele>878.3</ele>
        <time>2023-02-26T10:38:47Z</time>
      </trkpt>
      <trkpt lat="37.017076" lon="-4.293776">
        <ele>879.3</ele>
        <time>2023-02-26T10:40:21Z</time>
      </trkpt>
      <trkpt lat="37.016847" lon="-4.293820">
        <ele>879.3</ele>
        <time>2023-02-26T10:40:33Z</time>
      </trkpt>
      <trkpt lat="37.016630" lon="-4.293897">
        <ele>876.9</ele>
        <time>2023-02-26T10:40:47Z</time>
      </trkpt>
      <trkpt lat="37.016432" lon="-4.294025">
        <ele>878.3</ele>
        <time>2023-02-26T10:40:59Z</time>
      </trkpt>
      <trkpt lat="37.016252" lon="-4.294087">
        <ele>877.3</ele>
        <time>2023-02-26T10:41:14Z</time>
      </trkpt>
      <trkpt lat="37.016074" lon="-4.294142">
        <ele>877.8</ele>
        <time>2023-02-26T10:41:45Z</time>
      </trkpt>
      <trkpt lat="37.015862" lon="-4.294005">
        <ele>881.7</ele>
        <time>2023-02-26T10:42:05Z</time>
      </trkpt>
      <trkpt lat="37.015692" lon="-4.293902">
        <ele>884.6</ele>
        <time>2023-02-26T10:42:20Z</time>
      </trkpt>
      <trkpt lat="37.015547" lon="-4.293794">
        <ele>888.4</ele>
        <time>2023-02-26T10:42:52Z</time>
      </trkpt>
      <trkpt lat="37.015369" lon="-4.293737">
        <ele>890.8</ele>
        <time>2023-02-26T10:43:08Z</time>
      </trkpt>
      <trkpt lat="37.015192" lon="-4.293637">
        <ele>895.1</ele>
        <time>2023-02-26T10:43:26Z</time>
      </trkpt>
      <trkpt lat="37.015028" lon="-4.293513">
        <ele>900.9</ele>
        <time>2023-02-26T10:43:44Z</time>
      </trkpt>
      <trkpt lat="37.014865" lon="-4.293360">
        <ele>902.8</ele>
        <time>2023-02-26T10:44:02Z</time>
      </trkpt>
      <trkpt lat="37.014768" lon="-4.293234">
        <ele>905.2</ele>
        <time>2023-02-26T10:44:24Z</time>
      </trkpt>
      <trkpt lat="37.014883" lon="-4.293415">
        <ele>902.3</ele>
        <time>2023-02-26T10:44:39Z</time>
      </trkpt>
      <trkpt lat="37.014765" lon="-4.293627">
        <ele>901.9</ele>
        <time>2023-02-26T10:44:52Z</time>
      </trkpt>
      <trkpt lat="37.014646" lon="-4.293816">
        <ele>900.4</ele>
        <time>2023-02-26T10:45:05Z</time>
      </trkpt>
      <trkpt lat="37.014502" lon="-4.293960">
        <ele>899.5</ele>
        <time>2023-02-26T10:45:18Z</time>
      </trkpt>
      <trkpt lat="37.014321" lon="-4.293955">
        <ele>899.5</ele>
        <time>2023-02-26T10:45:31Z</time>
      </trkpt>
      <trkpt lat="37.014116" lon="-4.293912">
        <ele>899.9</ele>
        <time>2023-02-26T10:45:45Z</time>
      </trkpt>
      <trkpt lat="37.013920" lon="-4.293840">
        <ele>900.9</ele>
        <time>2023-02-26T10:46:00Z</time>
      </trkpt>
      <trkpt lat="37.013739" lon="-4.293922">
        <ele>901.9</ele>
        <time>2023-02-26T10:46:14Z</time>
      </trkpt>
      <trkpt lat="37.013675" lon="-4.294233">
        <ele>903.8</ele>
        <time>2023-02-26T10:46:29Z</time>
      </trkpt>
      <trkpt lat="37.013548" lon="-4.294434">
        <ele>903.8</ele>
        <time>2023-02-26T10:46:44Z</time>
      </trkpt>
      <trkpt lat="37.013560" lon="-4.294719">
        <ele>902.3</ele>
        <time>2023-02-26T10:47:02Z</time>
      </trkpt>
      <trkpt lat="37.013577" lon="-4.294947">
        <ele>900.4</ele>
        <time>2023-02-26T10:47:17Z</time>
      </trkpt>
      <trkpt lat="37.013587" lon="-4.295208">
        <ele>897.5</ele>
        <time>2023-02-26T10:47:32Z</time>
      </trkpt>
      <trkpt lat="37.013629" lon="-4.295483">
        <ele>896.1</ele>
        <time>2023-02-26T10:47:48Z</time>
      </trkpt>
      <trkpt lat="37.013674" lon="-4.295780">
        <ele>893.7</ele>
        <time>2023-02-26T10:48:05Z</time>
      </trkpt>
      <trkpt lat="37.013649" lon="-4.296039">
        <ele>890.8</ele>
        <time>2023-02-26T10:48:21Z</time>
      </trkpt>
      <trkpt lat="37.013666" lon="-4.296323">
        <ele>889.4</ele>
        <time>2023-02-26T10:48:37Z</time>
      </trkpt>
      <trkpt lat="37.013689" lon="-4.296594">
        <ele>888.9</ele>
        <time>2023-02-26T10:48:52Z</time>
      </trkpt>
      <trkpt lat="37.013733" lon="-4.296865">
        <ele>886.0</ele>
        <time>2023-02-26T10:49:08Z</time>
      </trkpt>
      <trkpt lat="37.013804" lon="-4.297128">
        <ele>882.6</ele>
        <time>2023-02-26T10:49:23Z</time>
      </trkpt>
      <trkpt lat="37.013898" lon="-4.297349">
        <ele>882.6</ele>
        <time>2023-02-26T10:49:37Z</time>
      </trkpt>
      <trkpt lat="37.014011" lon="-4.297591">
        <ele>879.7</ele>
        <time>2023-02-26T10:49:52Z</time>
      </trkpt>
      <trkpt lat="37.014084" lon="-4.297862">
        <ele>878.8</ele>
        <time>2023-02-26T10:50:07Z</time>
      </trkpt>
      <trkpt lat="37.014157" lon="-4.298132">
        <ele>878.8</ele>
        <time>2023-02-26T10:50:22Z</time>
      </trkpt>
      <trkpt lat="37.014188" lon="-4.298393">
        <ele>877.3</ele>
        <time>2023-02-26T10:50:37Z</time>
      </trkpt>
      <trkpt lat="37.014225" lon="-4.298648">
        <ele>874.0</ele>
        <time>2023-02-26T10:50:52Z</time>
      </trkpt>
      <trkpt lat="37.014230" lon="-4.298915">
        <ele>872.5</ele>
        <time>2023-02-26T10:51:07Z</time>
      </trkpt>
      <trkpt lat="37.014243" lon="-4.299183">
        <ele>870.1</ele>
        <time>2023-02-26T10:51:21Z</time>
      </trkpt>
      <trkpt lat="37.014237" lon="-4.299422">
        <ele>868.2</ele>
        <time>2023-02-26T10:51:34Z</time>
      </trkpt>
      <trkpt lat="37.014285" lon="-4.299659">
        <ele>867.2</ele>
        <time>2023-02-26T10:51:48Z</time>
      </trkpt>
      <trkpt lat="37.014341" lon="-4.299883">
        <ele>866.8</ele>
        <time>2023-02-26T10:52:01Z</time>
      </trkpt>
      <trkpt lat="37.014385" lon="-4.300115">
        <ele>864.4</ele>
        <time>2023-02-26T10:52:14Z</time>
      </trkpt>
      <trkpt lat="37.014443" lon="-4.300349">
        <ele>861.0</ele>
        <time>2023-02-26T10:52:27Z</time>
      </trkpt>
      <trkpt lat="37.014548" lon="-4.300518">
        <ele>857.6</ele>
        <time>2023-02-26T10:52:40Z</time>
      </trkpt>
      <trkpt lat="37.014712" lon="-4.300622">
        <ele>854.3</ele>
        <time>2023-02-26T10:52:53Z</time>
      </trkpt>
      <trkpt lat="37.014861" lon="-4.300676">
        <ele>851.4</ele>
        <time>2023-02-26T10:53:23Z</time>
      </trkpt>
      <trkpt lat="37.015027" lon="-4.300800">
        <ele>848.5</ele>
        <time>2023-02-26T10:53:36Z</time>
      </trkpt>
      <trkpt lat="37.015170" lon="-4.300939">
        <ele>846.1</ele>
        <time>2023-02-26T10:53:50Z</time>
      </trkpt>
      <trkpt lat="37.015330" lon="-4.301035">
        <ele>844.2</ele>
        <time>2023-02-26T10:54:03Z</time>
      </trkpt>
      <trkpt lat="37.015509" lon="-4.301085">
        <ele>839.8</ele>
        <time>2023-02-26T10:54:17Z</time>
      </trkpt>
      <trkpt lat="37.015734" lon="-4.301092">
        <ele>836.5</ele>
        <time>2023-02-26T10:54:32Z</time>
      </trkpt>
      <trkpt lat="37.015862" lon="-4.301258">
        <ele>830.7</ele>
        <time>2023-02-26T10:55:12Z</time>
      </trkpt>
      <trkpt lat="37.015833" lon="-4.301518">
        <ele>833.6</ele>
        <time>2023-02-26T10:55:38Z</time>
      </trkpt>
      <trkpt lat="37.015759" lon="-4.301733">
        <ele>837.4</ele>
        <time>2023-02-26T10:56:28Z</time>
      </trkpt>
      <trkpt lat="37.015706" lon="-4.301980">
        <ele>840.8</ele>
        <time>2023-02-26T10:56:44Z</time>
      </trkpt>
      <trkpt lat="37.015772" lon="-4.302208">
        <ele>842.3</ele>
        <time>2023-02-26T10:58:27Z</time>
      </trkpt>
      <trkpt lat="37.015864" lon="-4.302414">
        <ele>843.7</ele>
        <time>2023-02-26T10:58:41Z</time>
      </trkpt>
      <trkpt lat="37.015933" lon="-4.302626">
        <ele>845.6</ele>
        <time>2023-02-26T10:58:55Z</time>
      </trkpt>
      <trkpt lat="37.015982" lon="-4.302872">
        <ele>846.6</ele>
        <time>2023-02-26T10:59:11Z</time>
      </trkpt>
      <trkpt lat="37.016001" lon="-4.303135">
        <ele>848.5</ele>
        <time>2023-02-26T10:59:27Z</time>
      </trkpt>
      <trkpt lat="37.015968" lon="-4.303378">
        <ele>849.5</ele>
        <time>2023-02-26T10:59:42Z</time>
      </trkpt>
      <trkpt lat="37.015917" lon="-4.303638">
        <ele>850.4</ele>
        <time>2023-02-26T11:00:18Z</time>
      </trkpt>
      <trkpt lat="37.015818" lon="-4.303888">
        <ele>851.9</ele>
        <time>2023-02-26T11:00:40Z</time>
      </trkpt>
      <trkpt lat="37.015712" lon="-4.304145">
        <ele>853.3</ele>
        <time>2023-02-26T11:00:57Z</time>
      </trkpt>
      <trkpt lat="37.015638" lon="-4.304442">
        <ele>857.2</ele>
        <time>2023-02-26T11:01:14Z</time>
      </trkpt>
      <trkpt lat="37.015613" lon="-4.304734">
        <ele>859.1</ele>
        <time>2023-02-26T11:01:36Z</time>
      </trkpt>
      <trkpt lat="37.015678" lon="-4.305062">
        <ele>862.0</ele>
        <time>2023-02-26T11:01:58Z</time>
      </trkpt>
      <trkpt lat="37.015674" lon="-4.305375">
        <ele>862.9</ele>
        <time>2023-02-26T11:02:24Z</time>
      </trkpt>
      <trkpt lat="37.015741" lon="-4.305690">
        <ele>863.4</ele>
        <time>2023-02-26T11:02:52Z</time>
      </trkpt>
      <trkpt lat="37.015757" lon="-4.305919">
        <ele>860.5</ele>
        <time>2023-02-26T11:03:07Z</time>
      </trkpt>
      <trkpt lat="37.015703" lon="-4.306301">
        <ele>860.0</ele>
        <time>2023-02-26T11:04:12Z</time>
      </trkpt>
      <trkpt lat="37.015817" lon="-4.306506">
        <ele>857.6</ele>
        <time>2023-02-26T11:04:28Z</time>
      </trkpt>
      <trkpt lat="37.015862" lon="-4.306717">
        <ele>857.2</ele>
        <time>2023-02-26T11:04:42Z</time>
      </trkpt>
      <trkpt lat="37.015912" lon="-4.306947">
        <ele>857.2</ele>
        <time>2023-02-26T11:04:57Z</time>
      </trkpt>
      <trkpt lat="37.015977" lon="-4.307182">
        <ele>856.2</ele>
        <time>2023-02-26T11:05:11Z</time>
      </trkpt>
      <trkpt lat="37.016017" lon="-4.307417">
        <ele>853.8</ele>
        <time>2023-02-26T11:05:25Z</time>
      </trkpt>
      <trkpt lat="37.016059" lon="-4.307649">
        <ele>850.4</ele>
        <time>2023-02-26T11:05:39Z</time>
      </trkpt>
      <trkpt lat="37.016094" lon="-4.307880">
        <ele>848.5</ele>
        <time>2023-02-26T11:05:57Z</time>
      </trkpt>
      <trkpt lat="37.016179" lon="-4.308105">
        <ele>844.7</ele>
        <time>2023-02-26T11:06:12Z</time>
      </trkpt>
      <trkpt lat="37.016221" lon="-4.308351">
        <ele>842.3</ele>
        <time>2023-02-26T11:06:26Z</time>
      </trkpt>
      <trkpt lat="37.016279" lon="-4.308625">
        <ele>839.8</ele>
        <time>2023-02-26T11:06:41Z</time>
      </trkpt>
      <trkpt lat="37.016208" lon="-4.308863">
        <ele>837.4</ele>
        <time>2023-02-26T11:06:54Z</time>
      </trkpt>
      <trkpt lat="37.016272" lon="-4.309103">
        <ele>836.5</ele>
        <time>2023-02-26T11:07:07Z</time>
      </trkpt>
      <trkpt lat="37.016243" lon="-4.309367">
        <ele>833.6</ele>
        <time>2023-02-26T11:07:22Z</time>
      </trkpt>
      <trkpt lat="37.016209" lon="-4.309626">
        <ele>831.7</ele>
        <time>2023-02-26T11:07:37Z</time>
      </trkpt>
      <trkpt lat="37.016220" lon="-4.309881">
        <ele>828.8</ele>
        <time>2023-02-26T11:07:51Z</time>
      </trkpt>
      <trkpt lat="37.016371" lon="-4.310032">
        <ele>823.0</ele>
        <time>2023-02-26T11:08:11Z</time>
      </trkpt>
      <trkpt lat="37.016549" lon="-4.310093">
        <ele>820.6</ele>
        <time>2023-02-26T11:08:43Z</time>
      </trkpt>
      <trkpt lat="37.016721" lon="-4.310180">
        <ele>817.7</ele>
        <time>2023-02-26T11:08:58Z</time>
      </trkpt>
      <trkpt lat="37.016924" lon="-4.310280">
        <ele>816.8</ele>
        <time>2023-02-26T11:09:12Z</time>
      </trkpt>
      <trkpt lat="37.017104" lon="-4.310424">
        <ele>815.8</ele>
        <time>2023-02-26T11:09:25Z</time>
      </trkpt>
      <trkpt lat="37.017277" lon="-4.310544">
        <ele>815.3</ele>
        <time>2023-02-26T11:09:38Z</time>
      </trkpt>
      <trkpt lat="37.017452" lon="-4.310636">
        <ele>814.9</ele>
        <time>2023-02-26T11:09:51Z</time>
      </trkpt>
      <trkpt lat="37.017610" lon="-4.310755">
        <ele>815.3</ele>
        <time>2023-02-26T11:10:04Z</time>
      </trkpt>
      <trkpt lat="37.017744" lon="-4.310928">
        <ele>814.4</ele>
        <time>2023-02-26T11:10:17Z</time>
      </trkpt>
      <trkpt lat="37.017917" lon="-4.311073">
        <ele>813.9</ele>
        <time>2023-02-26T11:10:32Z</time>
      </trkpt>
      <trkpt lat="37.018078" lon="-4.311215">
        <ele>814.4</ele>
        <time>2023-02-26T11:12:11Z</time>
      </trkpt>
      <trkpt lat="37.018191" lon="-4.311414">
        <ele>812.9</ele>
        <time>2023-02-26T11:12:25Z</time>
      </trkpt>
      <trkpt lat="37.018296" lon="-4.311634">
        <ele>812.9</ele>
        <time>2023-02-26T11:12:39Z</time>
      </trkpt>
      <trkpt lat="37.018394" lon="-4.311846">
        <ele>811.5</ele>
        <time>2023-02-26T11:12:53Z</time>
      </trkpt>
      <trkpt lat="37.018470" lon="-4.312085">
        <ele>811.0</ele>
        <time>2023-02-26T11:13:07Z</time>
      </trkpt>
      <trkpt lat="37.018497" lon="-4.312350">
        <ele>810.5</ele>
        <time>2023-02-26T11:13:20Z</time>
      </trkpt>
      <trkpt lat="37.018466" lon="-4.312623">
        <ele>812.0</ele>
        <time>2023-02-26T11:13:34Z</time>
      </trkpt>
      <trkpt lat="37.018370" lon="-4.312852">
        <ele>812.0</ele>
        <time>2023-02-26T11:13:48Z</time>
      </trkpt>
      <trkpt lat="37.018264" lon="-4.313077">
        <ele>811.0</ele>
        <time>2023-02-26T11:14:03Z</time>
      </trkpt>
      <trkpt lat="37.018198" lon="-4.313286">
        <ele>811.0</ele>
        <time>2023-02-26T11:14:29Z</time>
      </trkpt>
      <trkpt lat="37.018182" lon="-4.313532">
        <ele>811.0</ele>
        <time>2023-02-26T11:14:43Z</time>
      </trkpt>
      <trkpt lat="37.018199" lon="-4.313781">
        <ele>810.0</ele>
        <time>2023-02-26T11:14:58Z</time>
      </trkpt>
      <trkpt lat="37.018132" lon="-4.314041">
        <ele>810.0</ele>
        <time>2023-02-26T11:15:13Z</time>
      </trkpt>
      <trkpt lat="37.017973" lon="-4.314177">
        <ele>810.0</ele>
        <time>2023-02-26T11:15:27Z</time>
      </trkpt>
      <trkpt lat="37.017789" lon="-4.314297">
        <ele>810.0</ele>
        <time>2023-02-26T11:15:41Z</time>
      </trkpt>
      <trkpt lat="37.017647" lon="-4.314481">
        <ele>809.6</ele>
        <time>2023-02-26T11:15:55Z</time>
      </trkpt>
      <trkpt lat="37.017526" lon="-4.314687">
        <ele>809.1</ele>
        <time>2023-02-26T11:16:09Z</time>
      </trkpt>
      <trkpt lat="37.017372" lon="-4.314874">
        <ele>809.1</ele>
        <time>2023-02-26T11:16:24Z</time>
      </trkpt>
      <trkpt lat="37.017210" lon="-4.315051">
        <ele>809.1</ele>
        <time>2023-02-26T11:16:39Z</time>
      </trkpt>
      <trkpt lat="37.017117" lon="-4.315293">
        <ele>808.6</ele>
        <time>2023-02-26T11:16:53Z</time>
      </trkpt>
      <trkpt lat="37.017071" lon="-4.315561">
        <ele>807.2</ele>
        <time>2023-02-26T11:17:09Z</time>
      </trkpt>
      <trkpt lat="37.017070" lon="-4.315808">
        <ele>807.6</ele>
        <time>2023-02-26T11:17:22Z</time>
      </trkpt>
      <trkpt lat="37.017101" lon="-4.316048">
        <ele>807.6</ele>
        <time>2023-02-26T11:17:35Z</time>
      </trkpt>
      <trkpt lat="37.017168" lon="-4.316277">
        <ele>807.6</ele>
        <time>2023-02-26T11:17:49Z</time>
      </trkpt>
      <trkpt lat="37.017267" lon="-4.316467">
        <ele>807.6</ele>
        <time>2023-02-26T11:18:02Z</time>
      </trkpt>
      <trkpt lat="37.017327" lon="-4.316687">
        <ele>805.7</ele>
        <time>2023-02-26T11:18:15Z</time>
      </trkpt>
      <trkpt lat="37.017390" lon="-4.316907">
        <ele>804.8</ele>
        <time>2023-02-26T11:18:28Z</time>
      </trkpt>
      <trkpt lat="37.017427" lon="-4.317133">
        <ele>802.8</ele>
        <time>2023-02-26T11:18:41Z</time>
      </trkpt>
      <trkpt lat="37.017462" lon="-4.317363">
        <ele>801.4</ele>
        <time>2023-02-26T11:18:53Z</time>
      </trkpt>
      <trkpt lat="37.017567" lon="-4.317565">
        <ele>800.0</ele>
        <time>2023-02-26T11:19:06Z</time>
      </trkpt>
      <trkpt lat="37.017705" lon="-4.317728">
        <ele>800.4</ele>
        <time>2023-02-26T11:19:19Z</time>
      </trkpt>
      <trkpt lat="37.017841" lon="-4.317886">
        <ele>799.5</ele>
        <time>2023-02-26T11:19:32Z</time>
      </trkpt>
      <trkpt lat="37.017981" lon="-4.318044">
        <ele>800.0</ele>
        <time>2023-02-26T11:19:45Z</time>
      </trkpt>
      <trkpt lat="37.018131" lon="-4.318180">
        <ele>799.5</ele>
        <time>2023-02-26T11:19:58Z</time>
      </trkpt>
      <trkpt lat="37.018302" lon="-4.318277">
        <ele>799.5</ele>
        <time>2023-02-26T11:20:11Z</time>
      </trkpt>
      <trkpt lat="37.018491" lon="-4.318343">
        <ele>799.0</ele>
        <time>2023-02-26T11:20:25Z</time>
      </trkpt>
      <trkpt lat="37.018635" lon="-4.318490">
        <ele>798.5</ele>
        <time>2023-02-26T11:20:39Z</time>
      </trkpt>
      <trkpt lat="37.018759" lon="-4.318671">
        <ele>794.2</ele>
        <time>2023-02-26T11:20:53Z</time>
      </trkpt>
      <trkpt lat="37.018864" lon="-4.318869">
        <ele>792.3</ele>
        <time>2023-02-26T11:21:07Z</time>
      </trkpt>
      <trkpt lat="37.018970" lon="-4.319065">
        <ele>786.5</ele>
        <time>2023-02-26T11:21:20Z</time>
      </trkpt>
      <trkpt lat="37.019080" lon="-4.319248">
        <ele>784.1</ele>
        <time>2023-02-26T11:21:33Z</time>
      </trkpt>
      <trkpt lat="37.019174" lon="-4.319444">
        <ele>783.1</ele>
        <time>2023-02-26T11:21:46Z</time>
      </trkpt>
      <trkpt lat="37.019277" lon="-4.319651">
        <ele>783.1</ele>
        <time>2023-02-26T11:22:00Z</time>
      </trkpt>
      <trkpt lat="37.019402" lon="-4.319806">
        <ele>783.6</ele>
        <time>2023-02-26T11:22:15Z</time>
      </trkpt>
      <trkpt lat="37.019379" lon="-4.319886">
        <ele>783.1</ele>
        <time>2023-02-26T11:22:40Z</time>
      </trkpt>
      <trkpt lat="37.019369" lon="-4.320126">
        <ele>783.1</ele>
        <time>2023-02-26T11:22:56Z</time>
      </trkpt>
      <trkpt lat="37.019385" lon="-4.320364">
        <ele>782.2</ele>
        <time>2023-02-26T11:23:14Z</time>
      </trkpt>
      <trkpt lat="37.019411" lon="-4.320599">
        <ele>779.3</ele>
        <time>2023-02-26T11:23:29Z</time>
      </trkpt>
      <trkpt lat="37.019490" lon="-4.320808">
        <ele>778.3</ele>
        <time>2023-02-26T11:23:43Z</time>
      </trkpt>
      <trkpt lat="37.019579" lon="-4.321011">
        <ele>775.4</ele>
        <time>2023-02-26T11:23:58Z</time>
      </trkpt>
      <trkpt lat="37.019667" lon="-4.321231">
        <ele>772.1</ele>
        <time>2023-02-26T11:24:14Z</time>
      </trkpt>
      <trkpt lat="37.019725" lon="-4.321455">
        <ele>769.7</ele>
        <time>2023-02-26T11:24:28Z</time>
      </trkpt>
      <trkpt lat="37.019770" lon="-4.321680">
        <ele>764.9</ele>
        <time>2023-02-26T11:24:41Z</time>
      </trkpt>
      <trkpt lat="37.019793" lon="-4.321910">
        <ele>762.0</ele>
        <time>2023-02-26T11:24:55Z</time>
      </trkpt>
      <trkpt lat="37.019804" lon="-4.322139">
        <ele>760.5</ele>
        <time>2023-02-26T11:25:09Z</time>
      </trkpt>
      <trkpt lat="37.019771" lon="-4.322373">
        <ele>756.7</ele>
        <time>2023-02-26T11:25:24Z</time>
      </trkpt>
      <trkpt lat="37.019747" lon="-4.322602">
        <ele>753.3</ele>
        <time>2023-02-26T11:25:43Z</time>
      </trkpt>
      <trkpt lat="37.019757" lon="-4.322836">
        <ele>749.5</ele>
        <time>2023-02-26T11:25:57Z</time>
      </trkpt>
      <trkpt lat="37.019824" lon="-4.323052">
        <ele>746.6</ele>
        <time>2023-02-26T11:26:11Z</time>
      </trkpt>
      <trkpt lat="37.019921" lon="-4.323250">
        <ele>745.2</ele>
        <time>2023-02-26T11:26:25Z</time>
      </trkpt>
      <trkpt lat="37.020014" lon="-4.323452">
        <ele>744.2</ele>
        <time>2023-02-26T11:26:39Z</time>
      </trkpt>
      <trkpt lat="37.020111" lon="-4.323647">
        <ele>741.3</ele>
        <time>2023-02-26T11:26:52Z</time>
      </trkpt>
      <trkpt lat="37.020216" lon="-4.323839">
        <ele>740.4</ele>
        <time>2023-02-26T11:27:05Z</time>
      </trkpt>
      <trkpt lat="37.020326" lon="-4.324026">
        <ele>738.9</ele>
        <time>2023-02-26T11:27:18Z</time>
      </trkpt>
      <trkpt lat="37.020457" lon="-4.324206">
        <ele>737.9</ele>
        <time>2023-02-26T11:27:32Z</time>
      </trkpt>
      <trkpt lat="37.020581" lon="-4.324381">
        <ele>737.0</ele>
        <time>2023-02-26T11:27:45Z</time>
      </trkpt>
      <trkpt lat="37.020718" lon="-4.324554">
        <ele>736.5</ele>
        <time>2023-02-26T11:27:59Z</time>
      </trkpt>
      <trkpt lat="37.020853" lon="-4.324730">
        <ele>735.5</ele>
        <time>2023-02-26T11:28:13Z</time>
      </trkpt>
      <trkpt lat="37.020977" lon="-4.324919">
        <ele>733.1</ele>
        <time>2023-02-26T11:28:27Z</time>
      </trkpt>
      <trkpt lat="37.021099" lon="-4.325115">
        <ele>732.7</ele>
        <time>2023-02-26T11:28:41Z</time>
      </trkpt>
      <trkpt lat="37.021206" lon="-4.325309">
        <ele>730.3</ele>
        <time>2023-02-26T11:28:55Z</time>
      </trkpt>
      <trkpt lat="37.021325" lon="-4.325505">
        <ele>728.3</ele>
        <time>2023-02-26T11:29:09Z</time>
      </trkpt>
      <trkpt lat="37.021448" lon="-4.325686">
        <ele>727.4</ele>
        <time>2023-02-26T11:29:22Z</time>
      </trkpt>
      <trkpt lat="37.021588" lon="-4.325847">
        <ele>726.9</ele>
        <time>2023-02-26T11:29:36Z</time>
      </trkpt>
      <trkpt lat="37.021749" lon="-4.326001">
        <ele>726.9</ele>
        <time>2023-02-26T11:29:50Z</time>
      </trkpt>
      <trkpt lat="37.021892" lon="-4.326170">
        <ele>726.4</ele>
        <time>2023-02-26T11:30:04Z</time>
      </trkpt>
      <trkpt lat="37.022024" lon="-4.326348">
        <ele>725.0</ele>
        <time>2023-02-26T11:30:17Z</time>
      </trkpt>
      <trkpt lat="37.022148" lon="-4.326531">
        <ele>724.0</ele>
        <time>2023-02-26T11:30:30Z</time>
      </trkpt>
      <trkpt lat="37.022266" lon="-4.326713">
        <ele>722.1</ele>
        <time>2023-02-26T11:30:43Z</time>
      </trkpt>
      <trkpt lat="37.022375" lon="-4.326903">
        <ele>722.1</ele>
        <time>2023-02-26T11:30:56Z</time>
      </trkpt>
      <trkpt lat="37.022477" lon="-4.327102">
        <ele>718.7</ele>
        <time>2023-02-26T11:31:09Z</time>
      </trkpt>
      <trkpt lat="37.022583" lon="-4.327297">
        <ele>717.8</ele>
        <time>2023-02-26T11:31:22Z</time>
      </trkpt>
      <trkpt lat="37.022703" lon="-4.327497">
        <ele>716.8</ele>
        <time>2023-02-26T11:31:36Z</time>
      </trkpt>
      <trkpt lat="37.022782" lon="-4.327708">
        <ele>715.4</ele>
        <time>2023-02-26T11:31:49Z</time>
      </trkpt>
      <trkpt lat="37.022844" lon="-4.327922">
        <ele>714.9</ele>
        <time>2023-02-26T11:32:02Z</time>
      </trkpt>
      <trkpt lat="37.022908" lon="-4.328137">
        <ele>714.4</ele>
        <time>2023-02-26T11:32:15Z</time>
      </trkpt>
      <trkpt lat="37.022988" lon="-4.328352">
        <ele>713.4</ele>
        <time>2023-02-26T11:32:29Z</time>
      </trkpt>
      <trkpt lat="37.023114" lon="-4.328533">
        <ele>713.0</ele>
        <time>2023-02-26T11:32:43Z</time>
      </trkpt>
      <trkpt lat="37.023242" lon="-4.328720">
        <ele>712.5</ele>
        <time>2023-02-26T11:32:57Z</time>
      </trkpt>
      <trkpt lat="37.023368" lon="-4.328902">
        <ele>711.5</ele>
        <time>2023-02-26T11:33:11Z</time>
      </trkpt>
      <trkpt lat="37.023499" lon="-4.329065">
        <ele>709.6</ele>
        <time>2023-02-26T11:33:24Z</time>
      </trkpt>
      <trkpt lat="37.023621" lon="-4.329257">
        <ele>709.1</ele>
        <time>2023-02-26T11:33:38Z</time>
      </trkpt>
      <trkpt lat="37.023744" lon="-4.329445">
        <ele>709.1</ele>
        <time>2023-02-26T11:33:51Z</time>
      </trkpt>
      <trkpt lat="37.023859" lon="-4.329622">
        <ele>708.1</ele>
        <time>2023-02-26T11:34:04Z</time>
      </trkpt>
      <trkpt lat="37.023960" lon="-4.329827">
        <ele>707.2</ele>
        <time>2023-02-26T11:34:18Z</time>
      </trkpt>
      <trkpt lat="37.024046" lon="-4.330041">
        <ele>705.7</ele>
        <time>2023-02-26T11:34:32Z</time>
      </trkpt>
      <trkpt lat="37.024143" lon="-4.330245">
        <ele>706.2</ele>
        <time>2023-02-26T11:34:45Z</time>
      </trkpt>
      <trkpt lat="37.024239" lon="-4.330451">
        <ele>705.3</ele>
        <time>2023-02-26T11:34:59Z</time>
      </trkpt>
      <trkpt lat="37.024361" lon="-4.330635">
        <ele>704.8</ele>
        <time>2023-02-26T11:35:13Z</time>
      </trkpt>
      <trkpt lat="37.024507" lon="-4.330792">
        <ele>703.8</ele>
        <time>2023-02-26T11:35:27Z</time>
      </trkpt>
      <trkpt lat="37.024654" lon="-4.330944">
        <ele>703.8</ele>
        <time>2023-02-26T11:35:41Z</time>
      </trkpt>
      <trkpt lat="37.024813" lon="-4.331093">
        <ele>702.9</ele>
        <time>2023-02-26T11:35:56Z</time>
      </trkpt>
      <trkpt lat="37.024949" lon="-4.331248">
        <ele>702.9</ele>
        <time>2023-02-26T11:36:10Z</time>
      </trkpt>
      <trkpt lat="37.025111" lon="-4.331394">
        <ele>702.9</ele>
        <time>2023-02-26T11:36:25Z</time>
      </trkpt>
      <trkpt lat="37.025291" lon="-4.331504">
        <ele>701.9</ele>
        <time>2023-02-26T11:36:39Z</time>
      </trkpt>
      <trkpt lat="37.025470" lon="-4.331585">
        <ele>701.4</ele>
        <time>2023-02-26T11:36:53Z</time>
      </trkpt>
      <trkpt lat="37.025646" lon="-4.331641">
        <ele>702.4</ele>
        <time>2023-02-26T11:37:06Z</time>
      </trkpt>
      <trkpt lat="37.025824" lon="-4.331689">
        <ele>700.9</ele>
        <time>2023-02-26T11:37:19Z</time>
      </trkpt>
      <trkpt lat="37.025993" lon="-4.331750">
        <ele>700.0</ele>
        <time>2023-02-26T11:37:32Z</time>
      </trkpt>
      <trkpt lat="37.026176" lon="-4.331798">
        <ele>699.5</ele>
        <time>2023-02-26T11:37:45Z</time>
      </trkpt>
      <trkpt lat="37.026355" lon="-4.331825">
        <ele>699.0</ele>
        <time>2023-02-26T11:37:58Z</time>
      </trkpt>
      <trkpt lat="37.026536" lon="-4.331773">
        <ele>699.0</ele>
        <time>2023-02-26T11:38:11Z</time>
      </trkpt>
      <trkpt lat="37.026717" lon="-4.331724">
        <ele>699.0</ele>
        <time>2023-02-26T11:38:24Z</time>
      </trkpt>
      <trkpt lat="37.026907" lon="-4.331727">
        <ele>698.1</ele>
        <time>2023-02-26T11:38:38Z</time>
      </trkpt>
      <trkpt lat="37.027105" lon="-4.331738">
        <ele>697.1</ele>
        <time>2023-02-26T11:38:54Z</time>
      </trkpt>
      <trkpt lat="37.027304" lon="-4.331769">
        <ele>696.6</ele>
        <time>2023-02-26T11:39:09Z</time>
      </trkpt>
      <trkpt lat="37.027483" lon="-4.331812">
        <ele>692.8</ele>
        <time>2023-02-26T11:39:30Z</time>
      </trkpt>
      <trkpt lat="37.027675" lon="-4.331844">
        <ele>689.9</ele>
        <time>2023-02-26T11:39:45Z</time>
      </trkpt>
      <trkpt lat="37.027871" lon="-4.331867">
        <ele>688.0</ele>
        <time>2023-02-26T11:39:59Z</time>
      </trkpt>
      <trkpt lat="37.028059" lon="-4.331895">
        <ele>686.5</ele>
        <time>2023-02-26T11:40:15Z</time>
      </trkpt>
      <trkpt lat="37.028127" lon="-4.332035">
        <ele>687.5</ele>
        <time>2023-02-26T11:42:57Z</time>
      </trkpt>
      <trkpt lat="37.028135" lon="-4.332280">
        <ele>687.5</ele>
        <time>2023-02-26T11:43:14Z</time>
      </trkpt>
      <trkpt lat="37.028112" lon="-4.332529">
        <ele>687.0</ele>
        <time>2023-02-26T11:43:34Z</time>
      </trkpt>
      <trkpt lat="37.028253" lon="-4.332694">
        <ele>687.0</ele>
        <time>2023-02-26T11:44:44Z</time>
      </trkpt>
      <trkpt lat="37.028356" lon="-4.332957">
        <ele>686.0</ele>
        <time>2023-02-26T11:46:22Z</time>
      </trkpt>
      <trkpt lat="37.028272" lon="-4.333182">
        <ele>685.1</ele>
        <time>2023-02-26T11:46:39Z</time>
      </trkpt>
      <trkpt lat="37.028241" lon="-4.333488">
        <ele>685.1</ele>
        <time>2023-02-26T11:46:56Z</time>
      </trkpt>
      <trkpt lat="37.028340" lon="-4.333773">
        <ele>685.1</ele>
        <time>2023-02-26T11:47:15Z</time>
      </trkpt>
      <trkpt lat="37.028423" lon="-4.334058">
        <ele>684.6</ele>
        <time>2023-02-26T11:47:33Z</time>
      </trkpt>
      <trkpt lat="37.028406" lon="-4.334371">
        <ele>684.6</ele>
        <time>2023-02-26T11:47:50Z</time>
      </trkpt>
      <trkpt lat="37.028374" lon="-4.334676">
        <ele>684.1</ele>
        <time>2023-02-26T11:48:07Z</time>
      </trkpt>
      <trkpt lat="37.028357" lon="-4.334995">
        <ele>683.6</ele>
        <time>2023-02-26T11:48:25Z</time>
      </trkpt>
      <trkpt lat="37.028271" lon="-4.335370">
        <ele>683.6</ele>
        <time>2023-02-26T11:48:53Z</time>
      </trkpt>
      <trkpt lat="37.028130" lon="-4.335733">
        <ele>683.6</ele>
        <time>2023-02-26T11:49:16Z</time>
      </trkpt>
      <trkpt lat="37.027993" lon="-4.336006">
        <ele>683.2</ele>
        <time>2023-02-26T11:49:34Z</time>
      </trkpt>
      <trkpt lat="37.027861" lon="-4.336251">
        <ele>682.7</ele>
        <time>2023-02-26T11:49:50Z</time>
      </trkpt>
      <trkpt lat="37.027755" lon="-4.336470">
        <ele>682.7</ele>
        <time>2023-02-26T11:50:05Z</time>
      </trkpt>
      <trkpt lat="37.027657" lon="-4.336706">
        <ele>682.2</ele>
        <time>2023-02-26T11:50:20Z</time>
      </trkpt>
      <trkpt lat="37.027549" lon="-4.336937">
        <ele>681.2</ele>
        <time>2023-02-26T11:50:35Z</time>
      </trkpt>
      <trkpt lat="37.027440" lon="-4.337174">
        <ele>681.2</ele>
        <time>2023-02-26T11:50:51Z</time>
      </trkpt>
      <trkpt lat="37.027321" lon="-4.337384">
        <ele>681.2</ele>
        <time>2023-02-26T11:51:15Z</time>
      </trkpt>
      <trkpt lat="37.027225" lon="-4.337588">
        <ele>681.2</ele>
        <time>2023-02-26T11:51:56Z</time>
      </trkpt>
      <trkpt lat="37.027115" lon="-4.337796">
        <ele>680.3</ele>
        <time>2023-02-26T11:52:12Z</time>
      </trkpt>
      <trkpt lat="37.027003" lon="-4.337990">
        <ele>679.8</ele>
        <time>2023-02-26T11:52:26Z</time>
      </trkpt>
      <trkpt lat="37.026888" lon="-4.338201">
        <ele>677.4</ele>
        <time>2023-02-26T11:52:41Z</time>
      </trkpt>
      <trkpt lat="37.026816" lon="-4.338433">
        <ele>676.9</ele>
        <time>2023-02-26T11:52:55Z</time>
      </trkpt>
      <trkpt lat="37.026730" lon="-4.338635">
        <ele>676.9</ele>
        <time>2023-02-26T11:53:08Z</time>
      </trkpt>
      <trkpt lat="37.026643" lon="-4.338856">
        <ele>676.4</ele>
        <time>2023-02-26T11:53:22Z</time>
      </trkpt>
      <trkpt lat="37.026561" lon="-4.339068">
        <ele>675.9</ele>
        <time>2023-02-26T11:53:35Z</time>
      </trkpt>
      <trkpt lat="37.026475" lon="-4.339283">
        <ele>676.4</ele>
        <time>2023-02-26T11:53:49Z</time>
      </trkpt>
      <trkpt lat="37.026393" lon="-4.339535">
        <ele>675.9</ele>
        <time>2023-02-26T11:54:04Z</time>
      </trkpt>
      <trkpt lat="37.026290" lon="-4.339761">
        <ele>676.4</ele>
        <time>2023-02-26T11:54:18Z</time>
      </trkpt>
      <trkpt lat="37.026226" lon="-4.339972">
        <ele>676.4</ele>
        <time>2023-02-26T11:54:30Z</time>
      </trkpt>
      <trkpt lat="37.026132" lon="-4.340193">
        <ele>676.4</ele>
        <time>2023-02-26T11:54:44Z</time>
      </trkpt>
      <trkpt lat="37.026131" lon="-4.340437">
        <ele>675.9</ele>
        <time>2023-02-26T11:55:00Z</time>
      </trkpt>
      <trkpt lat="37.026273" lon="-4.340672">
        <ele>676.9</ele>
        <time>2023-02-26T11:55:23Z</time>
      </trkpt>
      <trkpt lat="37.026413" lon="-4.340756">
        <ele>676.9</ele>
        <time>2023-02-26T11:55:38Z</time>
      </trkpt>
    </trkseg>
  </trk>
</gpx>
